<?xml version="1.0" encoding="UTF-8" standalone="no" ?><gpx xmlns="http://www.topografix.com/GPX/1/1" xmlns:gpxx="http://www.garmin.com/xmlschemas/GpxExtensions/v3" xmlns:wptx1="http://www.garmin.com/xmlschemas/WaypointExtension/v1" xmlns:gpxtpx="http://www.garmin.com/xmlschemas/TrackPointExtension/v1" creator="GuideVTT.com" version="1.1" xmlns:xsi="http://www.w3.org/2001/XMLSchema-instance" xsi:schemaLocation="http://www.topografix.com/GPX/1/1 http://www.topografix.com/GPX/1/1/gpx.xsd http://www.garmin.com/xmlschemas/GpxExtensions/v3 http://www8.garmin.com/xmlschemas/GpxExtensionsv3.xsd http://www.garmin.com/xmlschemas/WaypointExtension/v1 http://www8.garmin.com/xmlschemas/WaypointExtensionv1.xsd http://www.garmin.com/xmlschemas/TrackPointExtension/v1 http://www.garmin.com/xmlschemas/TrackPointExtensionv1.xsd">
<metadata><link href="http://www.garmin.com"><text>Garmin International</text></link><time>2013-06-22T15:13:50Z</time></metadata>
<trk><name>baulmesstecroixbaulmes.gpx</name><extensions><gpxx:TrackExtension><gpxx:DisplayColor>Cyan</gpxx:DisplayColor></gpxx:TrackExtension></extensions><trkseg>
<trkpt lat="46.78903509" lon="6.52623857"><ele>651.43042</ele><time>2007-07-07T12:13:28Z</time></trkpt>
<trkpt lat="46.78906619" lon="6.52624486"><ele>651.43042</ele><time>2007-07-07T12:13:30Z</time></trkpt>
<trkpt lat="46.78908337" lon="6.52624126"><ele>650.949707</ele><time>2007-07-07T12:13:31Z</time></trkpt>
<trkpt lat="46.78915202" lon="6.52611796"><ele>651.43042</ele><time>2007-07-07T12:13:36Z</time></trkpt>
<trkpt lat="46.78925947" lon="6.52594873"><ele>652.391846</ele><time>2007-07-07T12:13:43Z</time></trkpt>
<trkpt lat="46.78934178" lon="6.52578746"><ele>652.872559</ele><time>2007-07-07T12:13:49Z</time></trkpt>
<trkpt lat="46.78943667" lon="6.52561337"><ele>653.833984</ele><time>2007-07-07T12:13:56Z</time></trkpt>
<trkpt lat="46.78955418" lon="6.52540315"><ele>654.795166</ele><time>2007-07-07T12:14:04Z</time></trkpt>
<trkpt lat="46.78964043" lon="6.52519905"><ele>656.237061</ele><time>2007-07-07T12:14:12Z</time></trkpt>
<trkpt lat="46.78968318" lon="6.52500266"><ele>656.237061</ele><time>2007-07-07T12:14:19Z</time></trkpt>
<trkpt lat="46.78974018" lon="6.52495589"><ele>655.275879</ele><time>2007-07-07T12:14:23Z</time></trkpt>
<trkpt lat="46.78976608" lon="6.52488892"><ele>656.717773</ele><time>2007-07-07T12:14:26Z</time></trkpt>
<trkpt lat="46.78984964" lon="6.52462070"><ele>657.679199</ele><time>2007-07-07T12:14:36Z</time></trkpt>
<trkpt lat="46.78993396" lon="6.52437754"><ele>658.159912</ele><time>2007-07-07T12:14:45Z</time></trkpt>
<trkpt lat="46.79002793" lon="6.52416565"><ele>658.640381</ele><time>2007-07-07T12:14:54Z</time></trkpt>
<trkpt lat="46.79002818" lon="6.52400823"><ele>659.121094</ele><time>2007-07-07T12:15:00Z</time></trkpt>
<trkpt lat="46.79001284" lon="6.52386758"><ele>662.005127</ele><time>2007-07-07T12:15:05Z</time></trkpt>
<trkpt lat="46.78999825" lon="6.52360163"><ele>663.447021</ele><time>2007-07-07T12:15:14Z</time></trkpt>
<trkpt lat="46.79001166" lon="6.52331907"><ele>663.92749</ele><time>2007-07-07T12:15:24Z</time></trkpt>
<trkpt lat="46.79002625" lon="6.52318840"><ele>665.850342</ele><time>2007-07-07T12:15:29Z</time></trkpt>
<trkpt lat="46.79009004" lon="6.52302068"><ele>666.330811</ele><time>2007-07-07T12:15:36Z</time></trkpt>
<trkpt lat="46.79019087" lon="6.52289403"><ele>666.811523</ele><time>2007-07-07T12:15:43Z</time></trkpt>
<trkpt lat="46.79033638" lon="6.52269797"><ele>669.215088</ele><time>2007-07-07T12:15:53Z</time></trkpt>
<trkpt lat="46.79045364" lon="6.52248834"><ele>670.656982</ele><time>2007-07-07T12:16:03Z</time></trkpt>
<trkpt lat="46.79055783" lon="6.52233923"><ele>671.137695</ele><time>2007-07-07T12:16:11Z</time></trkpt>
<trkpt lat="46.79066185" lon="6.52212616"><ele>672.098877</ele><time>2007-07-07T12:16:21Z</time></trkpt>
<trkpt lat="46.79074986" lon="6.52191108"><ele>673.541016</ele><time>2007-07-07T12:16:31Z</time></trkpt>
<trkpt lat="46.79081130" lon="6.52174747"><ele>673.541016</ele><time>2007-07-07T12:16:39Z</time></trkpt>
<trkpt lat="46.79090375" lon="6.52150833"><ele>674.98291</ele><time>2007-07-07T12:16:50Z</time></trkpt>
<trkpt lat="46.79099863" lon="6.52133189"><ele>675.944092</ele><time>2007-07-07T12:16:59Z</time></trkpt>
<trkpt lat="46.79108002" lon="6.52112377"><ele>677.38623</ele><time>2007-07-07T12:17:09Z</time></trkpt>
<trkpt lat="46.79109603" lon="6.52105386"><ele>679.308594</ele><time>2007-07-07T12:17:12Z</time></trkpt>
<trkpt lat="46.79112889" lon="6.52087374"><ele>679.789307</ele><time>2007-07-07T12:17:20Z</time></trkpt>
<trkpt lat="46.79115336" lon="6.52063100"><ele>681.711914</ele><time>2007-07-07T12:17:31Z</time></trkpt>
<trkpt lat="46.79116166" lon="6.52040502"><ele>683.634521</ele><time>2007-07-07T12:17:41Z</time></trkpt>
<trkpt lat="46.79116753" lon="6.52020738"><ele>685.076904</ele><time>2007-07-07T12:17:50Z</time></trkpt>
<trkpt lat="46.79117247" lon="6.51996070"><ele>686.518799</ele><time>2007-07-07T12:18:01Z</time></trkpt>
<trkpt lat="46.79117549" lon="6.51980923"><ele>688.441406</ele><time>2007-07-07T12:18:08Z</time></trkpt>
<trkpt lat="46.79117030" lon="6.51965543"><ele>688.922119</ele><time>2007-07-07T12:18:16Z</time></trkpt>
<trkpt lat="46.79118228" lon="6.51949005"><ele>689.402588</ele><time>2007-07-07T12:18:23Z</time></trkpt>
<trkpt lat="46.79119293" lon="6.51932627"><ele>690.364014</ele><time>2007-07-07T12:18:30Z</time></trkpt>
<trkpt lat="46.79122025" lon="6.51910482"><ele>691.805908</ele><time>2007-07-07T12:18:40Z</time></trkpt>
<trkpt lat="46.79125898" lon="6.51891430"><ele>693.247803</ele><time>2007-07-07T12:18:49Z</time></trkpt>
<trkpt lat="46.79135025" lon="6.51881045"><ele>694.209229</ele><time>2007-07-07T12:18:56Z</time></trkpt>
<trkpt lat="46.79147456" lon="6.51870308"><ele>695.651123</ele><time>2007-07-07T12:19:05Z</time></trkpt>
<trkpt lat="46.79163474" lon="6.51862630"><ele>697.57373</ele><time>2007-07-07T12:19:16Z</time></trkpt>
<trkpt lat="46.79177228" lon="6.51870148"><ele>699.015625</ele><time>2007-07-07T12:19:25Z</time></trkpt>
<trkpt lat="46.79195107" lon="6.51885135"><ele>701.419189</ele><time>2007-07-07T12:19:38Z</time></trkpt>
<trkpt lat="46.79209432" lon="6.51894322"><ele>702.861084</ele><time>2007-07-07T12:19:48Z</time></trkpt>
<trkpt lat="46.79225257" lon="6.51900055"><ele>703.82251</ele><time>2007-07-07T12:19:58Z</time></trkpt>
<trkpt lat="46.79240973" lon="6.51903642"><ele>705.264404</ele><time>2007-07-07T12:20:08Z</time></trkpt>
<trkpt lat="46.79254794" lon="6.51905109"><ele>706.225586</ele><time>2007-07-07T12:20:17Z</time></trkpt>
<trkpt lat="46.79267057" lon="6.51904564"><ele>707.667725</ele><time>2007-07-07T12:20:25Z</time></trkpt>
<trkpt lat="46.79279865" lon="6.51901815"><ele>710.070801</ele><time>2007-07-07T12:20:34Z</time></trkpt>
<trkpt lat="46.79291725" lon="6.51902192"><ele>711.032227</ele><time>2007-07-07T12:20:42Z</time></trkpt>
<trkpt lat="46.79305597" lon="6.51913038"><ele>713.916016</ele><time>2007-07-07T12:20:52Z</time></trkpt>
<trkpt lat="46.79311079" lon="6.51930808"><ele>715.358154</ele><time>2007-07-07T12:21:00Z</time></trkpt>
<trkpt lat="46.79314264" lon="6.51950732"><ele>715.358154</ele><time>2007-07-07T12:21:09Z</time></trkpt>
<trkpt lat="46.79314348" lon="6.51966205"><ele>716.31958</ele><time>2007-07-07T12:21:16Z</time></trkpt>
<trkpt lat="46.79309947" lon="6.51984855"><ele>717.761475</ele><time>2007-07-07T12:21:25Z</time></trkpt>
<trkpt lat="46.79301364" lon="6.52002725"><ele>718.7229</ele><time>2007-07-07T12:21:34Z</time></trkpt>
<trkpt lat="46.79292848" lon="6.52016429"><ele>720.164795</ele><time>2007-07-07T12:21:42Z</time></trkpt>
<trkpt lat="46.79285875" lon="6.52033109"><ele>721.126221</ele><time>2007-07-07T12:21:51Z</time></trkpt>
<trkpt lat="46.79288892" lon="6.52048867"><ele>722.568115</ele><time>2007-07-07T12:21:58Z</time></trkpt>
<trkpt lat="46.79297023" lon="6.52055916"><ele>723.529541</ele><time>2007-07-07T12:22:05Z</time></trkpt>
<trkpt lat="46.79308699" lon="6.52047887"><ele>724.971436</ele><time>2007-07-07T12:22:14Z</time></trkpt>
<trkpt lat="46.79309646" lon="6.52043855"><ele>725.451904</ele><time>2007-07-07T12:22:17Z</time></trkpt>
<trkpt lat="46.79311657" lon="6.52031399"><ele>726.41333</ele><time>2007-07-07T12:22:23Z</time></trkpt>
<trkpt lat="46.79312169" lon="6.52019514"><ele>727.374756</ele><time>2007-07-07T12:22:29Z</time></trkpt>
<trkpt lat="46.79317047" lon="6.52002297"><ele>728.81665</ele><time>2007-07-07T12:22:37Z</time></trkpt>
<trkpt lat="46.79323358" lon="6.51987378"><ele>730.258545</ele><time>2007-07-07T12:22:44Z</time></trkpt>
<trkpt lat="46.79329268" lon="6.51972793"><ele>731.219971</ele><time>2007-07-07T12:22:51Z</time></trkpt>
<trkpt lat="46.79335864" lon="6.51956440"><ele>733.623291</ele><time>2007-07-07T12:22:59Z</time></trkpt>
<trkpt lat="46.79345487" lon="6.51948544"><ele>734.104004</ele><time>2007-07-07T12:23:06Z</time></trkpt>
<trkpt lat="46.79358127" lon="6.51945309"><ele>734.104004</ele><time>2007-07-07T12:23:14Z</time></trkpt>
<trkpt lat="46.79364036" lon="6.51944077"><ele>734.584717</ele><time>2007-07-07T12:23:18Z</time></trkpt>
<trkpt lat="46.79372728" lon="6.51942920"><ele>735.06543</ele><time>2007-07-07T12:23:24Z</time></trkpt>
<trkpt lat="46.79377254" lon="6.51944764"><ele>735.06543</ele><time>2007-07-07T12:23:27Z</time></trkpt>
<trkpt lat="46.79390246" lon="6.51945183"><ele>736.987793</ele><time>2007-07-07T12:23:34Z</time></trkpt>
<trkpt lat="46.79401813" lon="6.51940003"><ele>738.910645</ele><time>2007-07-07T12:23:40Z</time></trkpt>
<trkpt lat="46.79415082" lon="6.51935334"><ele>739.391113</ele><time>2007-07-07T12:23:48Z</time></trkpt>
<trkpt lat="46.79425735" lon="6.51930716"><ele>740.352539</ele><time>2007-07-07T12:23:56Z</time></trkpt>
<trkpt lat="46.79437352" lon="6.51924346"><ele>741.794434</ele><time>2007-07-07T12:24:04Z</time></trkpt>
<trkpt lat="46.79449129" lon="6.51915922"><ele>743.236328</ele><time>2007-07-07T12:24:13Z</time></trkpt>
<trkpt lat="46.79456279" lon="6.51905939"><ele>744.678223</ele><time>2007-07-07T12:24:20Z</time></trkpt>
<trkpt lat="46.79463856" lon="6.51893802"><ele>746.120361</ele><time>2007-07-07T12:24:28Z</time></trkpt>
<trkpt lat="46.79469849" lon="6.51879092"><ele>748.523682</ele><time>2007-07-07T12:24:36Z</time></trkpt>
<trkpt lat="46.79470754" lon="6.51877248"><ele>748.523682</ele><time>2007-07-07T12:24:37Z</time></trkpt>
<trkpt lat="46.79479145" lon="6.51860266"><ele>749.485107</ele><time>2007-07-07T12:24:47Z</time></trkpt>
<trkpt lat="46.79482749" lon="6.51849613"><ele>750.446533</ele><time>2007-07-07T12:24:54Z</time></trkpt>
<trkpt lat="46.79484224" lon="6.51845522"><ele>751.407715</ele><time>2007-07-07T12:24:57Z</time></trkpt>
<trkpt lat="46.79485003" lon="6.51839336"><ele>751.407715</ele><time>2007-07-07T12:25:02Z</time></trkpt>
<trkpt lat="46.79486554" lon="6.51824635"><ele>752.849609</ele><time>2007-07-07T12:25:09Z</time></trkpt>
<trkpt lat="46.79482439" lon="6.51807083"><ele>752.849609</ele><time>2007-07-07T12:25:16Z</time></trkpt>
<trkpt lat="46.79475809" lon="6.51793454"><ele>754.291748</ele><time>2007-07-07T12:25:24Z</time></trkpt>
<trkpt lat="46.79469455" lon="6.51777419"><ele>755.25293</ele><time>2007-07-07T12:25:33Z</time></trkpt>
<trkpt lat="46.79470520" lon="6.51767126"><ele>756.694824</ele><time>2007-07-07T12:25:39Z</time></trkpt>
<trkpt lat="46.79472925" lon="6.51746599"><ele>758.136963</ele><time>2007-07-07T12:25:48Z</time></trkpt>
<trkpt lat="46.79477124" lon="6.51722576"><ele>759.098145</ele><time>2007-07-07T12:25:59Z</time></trkpt>
<trkpt lat="46.79487878" lon="6.51700012"><ele>761.501465</ele><time>2007-07-07T12:26:11Z</time></trkpt>
<trkpt lat="46.79499605" lon="6.51695293"><ele>762.462646</ele><time>2007-07-07T12:26:19Z</time></trkpt>
<trkpt lat="46.79509185" lon="6.51702929"><ele>763.424072</ele><time>2007-07-07T12:26:26Z</time></trkpt>
<trkpt lat="46.79514558" lon="6.51714748"><ele>764.385498</ele><time>2007-07-07T12:26:33Z</time></trkpt>
<trkpt lat="46.79517969" lon="6.51725770"><ele>765.346924</ele><time>2007-07-07T12:26:39Z</time></trkpt>
<trkpt lat="46.79519956" lon="6.51738712"><ele>765.827637</ele><time>2007-07-07T12:26:45Z</time></trkpt>
<trkpt lat="46.79522747" lon="6.51758158"><ele>766.788818</ele><time>2007-07-07T12:26:53Z</time></trkpt>
<trkpt lat="46.79524759" lon="6.51766280"><ele>767.75</ele><time>2007-07-07T12:26:57Z</time></trkpt>
<trkpt lat="46.79527516" lon="6.51777168"><ele>768.230713</ele><time>2007-07-07T12:27:02Z</time></trkpt>
<trkpt lat="46.79534549" lon="6.51792875"><ele>769.192139</ele><time>2007-07-07T12:27:11Z</time></trkpt>
<trkpt lat="46.79541925" lon="6.51807938"><ele>770.634033</ele><time>2007-07-07T12:27:20Z</time></trkpt>
<trkpt lat="46.79549502" lon="6.51824157"><ele>772.556641</ele><time>2007-07-07T12:27:29Z</time></trkpt>
<trkpt lat="46.79553634" lon="6.51837367"><ele>773.998535</ele><time>2007-07-07T12:27:36Z</time></trkpt>
<trkpt lat="46.79553668" lon="6.51839504"><ele>773.518066</ele><time>2007-07-07T12:27:37Z</time></trkpt>
<trkpt lat="46.79555244" lon="6.51849110"><ele>774.959961</ele><time>2007-07-07T12:27:42Z</time></trkpt>
<trkpt lat="46.79556518" lon="6.51863853"><ele>775.921143</ele><time>2007-07-07T12:27:50Z</time></trkpt>
<trkpt lat="46.79553492" lon="6.51881900"><ele>776.882568</ele><time>2007-07-07T12:27:58Z</time></trkpt>
<trkpt lat="46.79550483" lon="6.51898219"><ele>777.84375</ele><time>2007-07-07T12:28:05Z</time></trkpt>
<trkpt lat="46.79544859" lon="6.51912753"><ele>778.805176</ele><time>2007-07-07T12:28:12Z</time></trkpt>
<trkpt lat="46.79538094" lon="6.51926458"><ele>779.766357</ele><time>2007-07-07T12:28:19Z</time></trkpt>
<trkpt lat="46.79531666" lon="6.51945577"><ele>781.689209</ele><time>2007-07-07T12:28:28Z</time></trkpt>
<trkpt lat="46.79535312" lon="6.51962517"><ele>782.650635</ele><time>2007-07-07T12:28:36Z</time></trkpt>
<trkpt lat="46.79544037" lon="6.51969256"><ele>783.131104</ele><time>2007-07-07T12:28:43Z</time></trkpt>
<trkpt lat="46.79556962" lon="6.51965694"><ele>784.573242</ele><time>2007-07-07T12:28:51Z</time></trkpt>
<trkpt lat="46.79564757" lon="6.51947966"><ele>786.015137</ele><time>2007-07-07T12:29:01Z</time></trkpt>
<trkpt lat="46.79565084" lon="6.51936893"><ele>787.937744</ele><time>2007-07-07T12:29:07Z</time></trkpt>
<trkpt lat="46.79566375" lon="6.51933767"><ele>787.937744</ele><time>2007-07-07T12:29:09Z</time></trkpt>
<trkpt lat="46.79569342" lon="6.51916433"><ele>788.89917</ele><time>2007-07-07T12:29:18Z</time></trkpt>
<trkpt lat="46.79569585" lon="6.51904036"><ele>789.860352</ele><time>2007-07-07T12:29:25Z</time></trkpt>
<trkpt lat="46.79570273" lon="6.51901119"><ele>790.341064</ele><time>2007-07-07T12:29:27Z</time></trkpt>
<trkpt lat="46.79575704" lon="6.51884037"><ele>791.302246</ele><time>2007-07-07T12:29:36Z</time></trkpt>
<trkpt lat="46.79581077" lon="6.51866938"><ele>793.224854</ele><time>2007-07-07T12:29:44Z</time></trkpt>
<trkpt lat="46.79588076" lon="6.51845958"><ele>794.666748</ele><time>2007-07-07T12:29:55Z</time></trkpt>
<trkpt lat="46.79599609" lon="6.51832027"><ele>797.070313</ele><time>2007-07-07T12:30:05Z</time></trkpt>
<trkpt lat="46.79607673" lon="6.51818725"><ele>798.99292</ele><time>2007-07-07T12:30:14Z</time></trkpt>
<trkpt lat="46.79612065" lon="6.51803923"><ele>800.435059</ele><time>2007-07-07T12:30:22Z</time></trkpt>
<trkpt lat="46.79614026" lon="6.51799799"><ele>800.915527</ele><time>2007-07-07T12:30:25Z</time></trkpt>
<trkpt lat="46.79618116" lon="6.51790948"><ele>802.357422</ele><time>2007-07-07T12:30:30Z</time></trkpt>
<trkpt lat="46.79618284" lon="6.51786606"><ele>802.838135</ele><time>2007-07-07T12:30:32Z</time></trkpt>
<trkpt lat="46.79620589" lon="6.51775005"><ele>803.799561</ele><time>2007-07-07T12:30:37Z</time></trkpt>
<trkpt lat="46.79622903" lon="6.51759968"><ele>803.799561</ele><time>2007-07-07T12:30:44Z</time></trkpt>
<trkpt lat="46.79625769" lon="6.51744495"><ele>805.241455</ele><time>2007-07-07T12:30:52Z</time></trkpt>
<trkpt lat="46.79625073" lon="6.51729383"><ele>807.164063</ele><time>2007-07-07T12:31:01Z</time></trkpt>
<trkpt lat="46.79623665" lon="6.51717095"><ele>808.125488</ele><time>2007-07-07T12:31:09Z</time></trkpt>
<trkpt lat="46.79623657" lon="6.51713348"><ele>808.125488</ele><time>2007-07-07T12:31:11Z</time></trkpt>
<trkpt lat="46.79623305" lon="6.51696995"><ele>809.08667</ele><time>2007-07-07T12:31:20Z</time></trkpt>
<trkpt lat="46.79623623" lon="6.51681975"><ele>811.48999</ele><time>2007-07-07T12:31:28Z</time></trkpt>
<trkpt lat="46.79623623" lon="6.51679686"><ele>810.528564</ele><time>2007-07-07T12:31:29Z</time></trkpt>
<trkpt lat="46.79623632" lon="6.51677524"><ele>810.528564</ele><time>2007-07-07T12:31:30Z</time></trkpt>
<trkpt lat="46.79623766" lon="6.51658866"><ele>812.451416</ele><time>2007-07-07T12:31:37Z</time></trkpt>
<trkpt lat="46.79626708" lon="6.51645186"><ele>812.932129</ele><time>2007-07-07T12:31:43Z</time></trkpt>
<trkpt lat="46.79629348" lon="6.51629135"><ele>814.854736</ele><time>2007-07-07T12:31:50Z</time></trkpt>
<trkpt lat="46.79631385" lon="6.51615129"><ele>816.296631</ele><time>2007-07-07T12:31:56Z</time></trkpt>
<trkpt lat="46.79632558" lon="6.51612396"><ele>816.296631</ele><time>2007-07-07T12:31:58Z</time></trkpt>
<trkpt lat="46.79635216" lon="6.51603763"><ele>816.777344</ele><time>2007-07-07T12:32:04Z</time></trkpt>
<trkpt lat="46.79635107" lon="6.51601508"><ele>817.258057</ele><time>2007-07-07T12:32:06Z</time></trkpt>
<trkpt lat="46.79635777" lon="6.51598047"><ele>817.738525</ele><time>2007-07-07T12:32:08Z</time></trkpt>
<trkpt lat="46.79636783" lon="6.51594677"><ele>818.219238</ele><time>2007-07-07T12:32:10Z</time></trkpt>
<trkpt lat="46.79641343" lon="6.51578458"><ele>819.661377</ele><time>2007-07-07T12:32:18Z</time></trkpt>
<trkpt lat="46.79643648" lon="6.51555249"><ele>821.58374</ele><time>2007-07-07T12:32:27Z</time></trkpt>
<trkpt lat="46.79645140" lon="6.51548744"><ele>822.064453</ele><time>2007-07-07T12:32:30Z</time></trkpt>
<trkpt lat="46.79650395" lon="6.51527504"><ele>823.025879</ele><time>2007-07-07T12:32:40Z</time></trkpt>
<trkpt lat="46.79658090" lon="6.51509928"><ele>823.987061</ele><time>2007-07-07T12:32:49Z</time></trkpt>
<trkpt lat="46.79665474" lon="6.51493264"><ele>824.948486</ele><time>2007-07-07T12:32:58Z</time></trkpt>
<trkpt lat="46.79671367" lon="6.51481588"><ele>825.428955</ele><time>2007-07-07T12:33:05Z</time></trkpt>
<trkpt lat="46.79676807" lon="6.51472293"><ele>826.871094</ele><time>2007-07-07T12:33:12Z</time></trkpt>
<trkpt lat="46.79686362" lon="6.51461723"><ele>828.313232</ele><time>2007-07-07T12:33:21Z</time></trkpt>
<trkpt lat="46.79701508" lon="6.51450433"><ele>830.23584</ele><time>2007-07-07T12:33:33Z</time></trkpt>
<trkpt lat="46.79713695" lon="6.51439997"><ele>831.677734</ele><time>2007-07-07T12:33:42Z</time></trkpt>
<trkpt lat="46.79721449" lon="6.51432588"><ele>833.119629</ele><time>2007-07-07T12:33:51Z</time></trkpt>
<trkpt lat="46.79720082" lon="6.51426754"><ele>833.600342</ele><time>2007-07-07T12:33:55Z</time></trkpt>
<trkpt lat="46.79719219" lon="6.51418104"><ele>834.561768</ele><time>2007-07-07T12:34:01Z</time></trkpt>
<trkpt lat="46.79719118" lon="6.51416327"><ele>834.561768</ele><time>2007-07-07T12:34:02Z</time></trkpt>
<trkpt lat="46.79718976" lon="6.51414407"><ele>834.561768</ele><time>2007-07-07T12:34:03Z</time></trkpt>
<trkpt lat="46.79714894" lon="6.51403737"><ele>835.522949</ele><time>2007-07-07T12:34:09Z</time></trkpt>
<trkpt lat="46.79711005" lon="6.51387786"><ele>836.964844</ele><time>2007-07-07T12:34:15Z</time></trkpt>
<trkpt lat="46.79702732" lon="6.51377334"><ele>837.445557</ele><time>2007-07-07T12:34:23Z</time></trkpt>
<trkpt lat="46.79700175" lon="6.51374845"><ele>837.92627</ele><time>2007-07-07T12:34:26Z</time></trkpt>
<trkpt lat="46.79692908" lon="6.51373998"><ele>838.887695</ele><time>2007-07-07T12:34:33Z</time></trkpt>
<trkpt lat="46.79685415" lon="6.51375993"><ele>839.368164</ele><time>2007-07-07T12:34:40Z</time></trkpt>
<trkpt lat="46.79683512" lon="6.51376404"><ele>839.848877</ele><time>2007-07-07T12:34:42Z</time></trkpt>
<trkpt lat="46.79670436" lon="6.51375356"><ele>840.810059</ele><time>2007-07-07T12:34:49Z</time></trkpt>
<trkpt lat="46.79657444" lon="6.51374208"><ele>841.290771</ele><time>2007-07-07T12:34:55Z</time></trkpt>
<trkpt lat="46.79650010" lon="6.51365474"><ele>841.771484</ele><time>2007-07-07T12:35:00Z</time></trkpt>
<trkpt lat="46.79644486" lon="6.51360394"><ele>843.213379</ele><time>2007-07-07T12:35:05Z</time></trkpt>
<trkpt lat="46.79638484" lon="6.51349079"><ele>843.694092</ele><time>2007-07-07T12:35:11Z</time></trkpt>
<trkpt lat="46.79630949" lon="6.51339264"><ele>845.13623</ele><time>2007-07-07T12:35:18Z</time></trkpt>
<trkpt lat="46.79624596" lon="6.51337202"><ele>845.616943</ele><time>2007-07-07T12:35:24Z</time></trkpt>
<trkpt lat="46.79620857" lon="6.51335794"><ele>846.097656</ele><time>2007-07-07T12:35:28Z</time></trkpt>
<trkpt lat="46.79613867" lon="6.51335282"><ele>846.578369</ele><time>2007-07-07T12:35:34Z</time></trkpt>
<trkpt lat="46.79600162" lon="6.51335307"><ele>848.020264</ele><time>2007-07-07T12:35:43Z</time></trkpt>
<trkpt lat="46.79591370" lon="6.51335224"><ele>849.462158</ele><time>2007-07-07T12:35:50Z</time></trkpt>
<trkpt lat="46.79581278" lon="6.51333162"><ele>850.904053</ele><time>2007-07-07T12:35:57Z</time></trkpt>
<trkpt lat="46.79571949" lon="6.51331242"><ele>852.345947</ele><time>2007-07-07T12:36:04Z</time></trkpt>
<trkpt lat="46.79559669" lon="6.51325610"><ele>854.268799</ele><time>2007-07-07T12:36:13Z</time></trkpt>
<trkpt lat="46.79551648" lon="6.51316892"><ele>855.22998</ele><time>2007-07-07T12:36:21Z</time></trkpt>
<trkpt lat="46.79545965" lon="6.51306306"><ele>856.191162</ele><time>2007-07-07T12:36:28Z</time></trkpt>
<trkpt lat="46.79541414" lon="6.51295887"><ele>857.633301</ele><time>2007-07-07T12:36:35Z</time></trkpt>
<trkpt lat="46.79536242" lon="6.51279903"><ele>859.075195</ele><time>2007-07-07T12:36:44Z</time></trkpt>
<trkpt lat="46.79534767" lon="6.51272477"><ele>860.036621</ele><time>2007-07-07T12:36:48Z</time></trkpt>
<trkpt lat="46.79533375" lon="6.51265008"><ele>860.517334</ele><time>2007-07-07T12:36:53Z</time></trkpt>
<trkpt lat="46.79531280" lon="6.51251044"><ele>861.47876</ele><time>2007-07-07T12:37:01Z</time></trkpt>
<trkpt lat="46.79528958" lon="6.51244129"><ele>862.439941</ele><time>2007-07-07T12:37:05Z</time></trkpt>
<trkpt lat="46.79525656" lon="6.51235915"><ele>863.401367</ele><time>2007-07-07T12:37:10Z</time></trkpt>
<trkpt lat="46.79522672" lon="6.51226016"><ele>863.881836</ele><time>2007-07-07T12:37:16Z</time></trkpt>
<trkpt lat="46.79522135" lon="6.51220542"><ele>864.362549</ele><time>2007-07-07T12:37:19Z</time></trkpt>
<trkpt lat="46.79519956" lon="6.51206159"><ele>865.804688</ele><time>2007-07-07T12:37:26Z</time></trkpt>
<trkpt lat="46.79518975" lon="6.51192899"><ele>866.765869</ele><time>2007-07-07T12:37:32Z</time></trkpt>
<trkpt lat="46.79518372" lon="6.51184366"><ele>867.246582</ele><time>2007-07-07T12:37:37Z</time></trkpt>
<trkpt lat="46.79518447" lon="6.51167996"><ele>869.649902</ele><time>2007-07-07T12:37:45Z</time></trkpt>
<trkpt lat="46.79518573" lon="6.51162774"><ele>870.130371</ele><time>2007-07-07T12:37:48Z</time></trkpt>
<trkpt lat="46.79518984" lon="6.51158550"><ele>870.130371</ele><time>2007-07-07T12:37:50Z</time></trkpt>
<trkpt lat="46.79518615" lon="6.51146379"><ele>871.572266</ele><time>2007-07-07T12:37:56Z</time></trkpt>
<trkpt lat="46.79521423" lon="6.51128484"><ele>872.533691</ele><time>2007-07-07T12:38:04Z</time></trkpt>
<trkpt lat="46.79521959" lon="6.51121502"><ele>873.495117</ele><time>2007-07-07T12:38:07Z</time></trkpt>
<trkpt lat="46.79525957" lon="6.51103313"><ele>875.898193</ele><time>2007-07-07T12:38:15Z</time></trkpt>
<trkpt lat="46.79529905" lon="6.51088963"><ele>877.340576</ele><time>2007-07-07T12:38:22Z</time></trkpt>
<trkpt lat="46.79536586" lon="6.51066584"><ele>879.262939</ele><time>2007-07-07T12:38:33Z</time></trkpt>
<trkpt lat="46.79542596" lon="6.51049803"><ele>880.705078</ele><time>2007-07-07T12:38:42Z</time></trkpt>
<trkpt lat="46.79545814" lon="6.51028655"><ele>882.627686</ele><time>2007-07-07T12:38:52Z</time></trkpt>
<trkpt lat="46.79546384" lon="6.51008044"><ele>885.031006</ele><time>2007-07-07T12:39:01Z</time></trkpt>
<trkpt lat="46.79544616" lon="6.50991054"><ele>886.4729</ele><time>2007-07-07T12:39:11Z</time></trkpt>
<trkpt lat="46.79542797" lon="6.50988087"><ele>887.914795</ele><time>2007-07-07T12:39:14Z</time></trkpt>
<trkpt lat="46.79537315" lon="6.50977308"><ele>889.837402</ele><time>2007-07-07T12:39:23Z</time></trkpt>
<trkpt lat="46.79535982" lon="6.50975078"><ele>889.356689</ele><time>2007-07-07T12:39:25Z</time></trkpt>
<trkpt lat="46.79535404" lon="6.50965766"><ele>889.837402</ele><time>2007-07-07T12:39:30Z</time></trkpt>
<trkpt lat="46.79532596" lon="6.50957359"><ele>891.279297</ele><time>2007-07-07T12:39:34Z</time></trkpt>
<trkpt lat="46.79527055" lon="6.50941408"><ele>892.72168</ele><time>2007-07-07T12:39:43Z</time></trkpt>
<trkpt lat="46.79525346" lon="6.50937863"><ele>893.202148</ele><time>2007-07-07T12:39:45Z</time></trkpt>
<trkpt lat="46.79522580" lon="6.50920143"><ele>893.682861</ele><time>2007-07-07T12:39:53Z</time></trkpt>
<trkpt lat="46.79519696" lon="6.50911158"><ele>894.644043</ele><time>2007-07-07T12:39:58Z</time></trkpt>
<trkpt lat="46.79518196" lon="6.50896984"><ele>895.605469</ele><time>2007-07-07T12:40:05Z</time></trkpt>
<trkpt lat="46.79513879" lon="6.50883129"><ele>897.047363</ele><time>2007-07-07T12:40:12Z</time></trkpt>
<trkpt lat="46.79505656" lon="6.50866239"><ele>898.969971</ele><time>2007-07-07T12:40:22Z</time></trkpt>
<trkpt lat="46.79499119" lon="6.50850859"><ele>900.412109</ele><time>2007-07-07T12:40:31Z</time></trkpt>
<trkpt lat="46.79494115" lon="6.50840038"><ele>901.854004</ele><time>2007-07-07T12:40:38Z</time></trkpt>
<trkpt lat="46.79487627" lon="6.50828588"><ele>902.334473</ele><time>2007-07-07T12:40:46Z</time></trkpt>
<trkpt lat="46.79479153" lon="6.50814037"><ele>903.295898</ele><time>2007-07-07T12:40:56Z</time></trkpt>
<trkpt lat="46.79471735" lon="6.50800223"><ele>903.776611</ele><time>2007-07-07T12:41:05Z</time></trkpt>
<trkpt lat="46.79464166" lon="6.50790115"><ele>905.218506</ele><time>2007-07-07T12:41:13Z</time></trkpt>
<trkpt lat="46.79455977" lon="6.50775564"><ele>907.141113</ele><time>2007-07-07T12:41:23Z</time></trkpt>
<trkpt lat="46.79447293" lon="6.50759085"><ele>909.063965</ele><time>2007-07-07T12:41:35Z</time></trkpt>
<trkpt lat="46.79439859" lon="6.50745699"><ele>909.544678</ele><time>2007-07-07T12:41:45Z</time></trkpt>
<trkpt lat="46.79434109" lon="6.50736588"><ele>910.986572</ele><time>2007-07-07T12:41:52Z</time></trkpt>
<trkpt lat="46.79426783" lon="6.50721258"><ele>912.428467</ele><time>2007-07-07T12:42:02Z</time></trkpt>
<trkpt lat="46.79414487" lon="6.50706153"><ele>914.831787</ele><time>2007-07-07T12:42:15Z</time></trkpt>
<trkpt lat="46.79408267" lon="6.50688845"><ele>915.3125</ele><time>2007-07-07T12:42:26Z</time></trkpt>
<trkpt lat="46.79401838" lon="6.50672978"><ele>916.754395</ele><time>2007-07-07T12:42:36Z</time></trkpt>
<trkpt lat="46.79395577" lon="6.50660078"><ele>918.196289</ele><time>2007-07-07T12:42:45Z</time></trkpt>
<trkpt lat="46.79394588" lon="6.50656692"><ele>918.677002</ele><time>2007-07-07T12:42:47Z</time></trkpt>
<trkpt lat="46.79387329" lon="6.50648310"><ele>919.638428</ele><time>2007-07-07T12:42:54Z</time></trkpt>
<trkpt lat="46.79382887" lon="6.50642669"><ele>919.638428</ele><time>2007-07-07T12:42:59Z</time></trkpt>
<trkpt lat="46.79378176" lon="6.50634664"><ele>920.599609</ele><time>2007-07-07T12:43:05Z</time></trkpt>
<trkpt lat="46.79369903" lon="6.50615218"><ele>922.522217</ele><time>2007-07-07T12:43:18Z</time></trkpt>
<trkpt lat="46.79364773" lon="6.50604422"><ele>923.483643</ele><time>2007-07-07T12:43:26Z</time></trkpt>
<trkpt lat="46.79360566" lon="6.50595345"><ele>924.445068</ele><time>2007-07-07T12:43:34Z</time></trkpt>
<trkpt lat="46.79359292" lon="6.50592805"><ele>925.40625</ele><time>2007-07-07T12:43:36Z</time></trkpt>
<trkpt lat="46.79357766" lon="6.50590416"><ele>925.40625</ele><time>2007-07-07T12:43:38Z</time></trkpt>
<trkpt lat="46.79351882" lon="6.50576083"><ele>925.886963</ele><time>2007-07-07T12:43:47Z</time></trkpt>
<trkpt lat="46.79345990" lon="6.50558816"><ele>926.848389</ele><time>2007-07-07T12:43:57Z</time></trkpt>
<trkpt lat="46.79340055" lon="6.50541692"><ele>928.290283</ele><time>2007-07-07T12:44:08Z</time></trkpt>
<trkpt lat="46.79334783" lon="6.50528423"><ele>929.732178</ele><time>2007-07-07T12:44:17Z</time></trkpt>
<trkpt lat="46.79335646" lon="6.50520544"><ele>929.732178</ele><time>2007-07-07T12:44:21Z</time></trkpt>
<trkpt lat="46.79344498" lon="6.50506404"><ele>931.174316</ele><time>2007-07-07T12:44:31Z</time></trkpt>
<trkpt lat="46.79356987" lon="6.50514007"><ele>933.577393</ele><time>2007-07-07T12:44:41Z</time></trkpt>
<trkpt lat="46.79366190" lon="6.50523872"><ele>935.019531</ele><time>2007-07-07T12:44:50Z</time></trkpt>
<trkpt lat="46.79375779" lon="6.50531265"><ele>936.461426</ele><time>2007-07-07T12:44:59Z</time></trkpt>
<trkpt lat="46.79377455" lon="6.50533260"><ele>936.461426</ele><time>2007-07-07T12:45:02Z</time></trkpt>
<trkpt lat="46.79382409" lon="6.50541399"><ele>937.90332</ele><time>2007-07-07T12:45:09Z</time></trkpt>
<trkpt lat="46.79384974" lon="6.50542933"><ele>937.90332</ele><time>2007-07-07T12:45:12Z</time></trkpt>
<trkpt lat="46.79388746" lon="6.50546319"><ele>938.864746</ele><time>2007-07-07T12:45:17Z</time></trkpt>
<trkpt lat="46.79395753" lon="6.50553117"><ele>940.306885</ele><time>2007-07-07T12:45:24Z</time></trkpt>
<trkpt lat="46.79405568" lon="6.50559763"><ele>941.748779</ele><time>2007-07-07T12:45:32Z</time></trkpt>
<trkpt lat="46.79418493" lon="6.50570593"><ele>943.190674</ele><time>2007-07-07T12:45:42Z</time></trkpt>
<trkpt lat="46.79429566" lon="6.50578899"><ele>944.1521</ele><time>2007-07-07T12:45:51Z</time></trkpt>
<trkpt lat="46.79440965" lon="6.50582789"><ele>945.593994</ele><time>2007-07-07T12:46:02Z</time></trkpt>
<trkpt lat="46.79451317" lon="6.50588966"><ele>947.516602</ele><time>2007-07-07T12:46:12Z</time></trkpt>
<trkpt lat="46.79461467" lon="6.50595579"><ele>948.477783</ele><time>2007-07-07T12:46:21Z</time></trkpt>
<trkpt lat="46.79471727" lon="6.50603299"><ele>950.400635</ele><time>2007-07-07T12:46:30Z</time></trkpt>
<trkpt lat="46.79480687" lon="6.50610080"><ele>951.361816</ele><time>2007-07-07T12:46:38Z</time></trkpt>
<trkpt lat="46.79493260" lon="6.50620499"><ele>952.803711</ele><time>2007-07-07T12:46:48Z</time></trkpt>
<trkpt lat="46.79503737" lon="6.50633994"><ele>955.207031</ele><time>2007-07-07T12:46:58Z</time></trkpt>
<trkpt lat="46.79512245" lon="6.50648335"><ele>955.687744</ele><time>2007-07-07T12:47:06Z</time></trkpt>
<trkpt lat="46.79523074" lon="6.50665183"><ele>958.091309</ele><time>2007-07-07T12:47:17Z</time></trkpt>
<trkpt lat="46.79530467" lon="6.50677596"><ele>959.05249</ele><time>2007-07-07T12:47:26Z</time></trkpt>
<trkpt lat="46.79537047" lon="6.50684796"><ele>959.533203</ele><time>2007-07-07T12:47:33Z</time></trkpt>
<trkpt lat="46.79544875" lon="6.50691317"><ele>960.494385</ele><time>2007-07-07T12:47:41Z</time></trkpt>
<trkpt lat="46.79552964" lon="6.50694092"><ele>961.936523</ele><time>2007-07-07T12:47:48Z</time></trkpt>
<trkpt lat="46.79561974" lon="6.50695609"><ele>962.416992</ele><time>2007-07-07T12:47:56Z</time></trkpt>
<trkpt lat="46.79567196" lon="6.50694402"><ele>963.858887</ele><time>2007-07-07T12:48:02Z</time></trkpt>
<trkpt lat="46.79570113" lon="6.50694444"><ele>963.858887</ele><time>2007-07-07T12:48:05Z</time></trkpt>
<trkpt lat="46.79577137" lon="6.50695835"><ele>964.3396</ele><time>2007-07-07T12:48:12Z</time></trkpt>
<trkpt lat="46.79580155" lon="6.50695357"><ele>965.301025</ele><time>2007-07-07T12:48:15Z</time></trkpt>
<trkpt lat="46.79582468" lon="6.50693757"><ele>965.301025</ele><time>2007-07-07T12:48:17Z</time></trkpt>
<trkpt lat="46.79587883" lon="6.50693757"><ele>966.262207</ele><time>2007-07-07T12:48:22Z</time></trkpt>
<trkpt lat="46.79589216" lon="6.50693589"><ele>966.262207</ele><time>2007-07-07T12:48:23Z</time></trkpt>
<trkpt lat="46.79595100" lon="6.50692843"><ele>967.223633</ele><time>2007-07-07T12:48:28Z</time></trkpt>
<trkpt lat="46.79604127" lon="6.50693052"><ele>967.704102</ele><time>2007-07-07T12:48:33Z</time></trkpt>
<trkpt lat="46.79609374" lon="6.50694997"><ele>968.665527</ele><time>2007-07-07T12:48:37Z</time></trkpt>
<trkpt lat="46.79612853" lon="6.50694494"><ele>969.14624</ele><time>2007-07-07T12:48:39Z</time></trkpt>
<trkpt lat="46.79615677" lon="6.50694293"><ele>969.626953</ele><time>2007-07-07T12:48:41Z</time></trkpt>
<trkpt lat="46.79619768" lon="6.50693757"><ele>970.107422</ele><time>2007-07-07T12:48:44Z</time></trkpt>
<trkpt lat="46.79623397" lon="6.50693522"><ele>970.588135</ele><time>2007-07-07T12:48:47Z</time></trkpt>
<trkpt lat="46.79625082" lon="6.50693379"><ele>970.588135</ele><time>2007-07-07T12:48:49Z</time></trkpt>
<trkpt lat="46.79631947" lon="6.50690890"><ele>971.549316</ele><time>2007-07-07T12:48:55Z</time></trkpt>
<trkpt lat="46.79634403" lon="6.50690597"><ele>971.549316</ele><time>2007-07-07T12:48:57Z</time></trkpt>
<trkpt lat="46.79640949" lon="6.50688568"><ele>972.030273</ele><time>2007-07-07T12:49:01Z</time></trkpt>
<trkpt lat="46.79650546" lon="6.50688275"><ele>972.991699</ele><time>2007-07-07T12:49:07Z</time></trkpt>
<trkpt lat="46.79656715" lon="6.50688677"><ele>973.952881</ele><time>2007-07-07T12:49:12Z</time></trkpt>
<trkpt lat="46.79667268" lon="6.50683916"><ele>975.394775</ele><time>2007-07-07T12:49:20Z</time></trkpt>
<trkpt lat="46.79669565" lon="6.50684218"><ele>975.875488</ele><time>2007-07-07T12:49:22Z</time></trkpt>
<trkpt lat="46.79675289" lon="6.50683053"><ele>976.356201</ele><time>2007-07-07T12:49:26Z</time></trkpt>
<trkpt lat="46.79686354" lon="6.50681117"><ele>977.317627</ele><time>2007-07-07T12:49:35Z</time></trkpt>
<trkpt lat="46.79691274" lon="6.50679080"><ele>977.798096</ele><time>2007-07-07T12:49:39Z</time></trkpt>
<trkpt lat="46.79695364" lon="6.50680329"><ele>978.759521</ele><time>2007-07-07T12:49:43Z</time></trkpt>
<trkpt lat="46.79697577" lon="6.50679390"><ele>978.759521</ele><time>2007-07-07T12:49:46Z</time></trkpt>
<trkpt lat="46.79707417" lon="6.50677345"><ele>981.162842</ele><time>2007-07-07T12:49:56Z</time></trkpt>
<trkpt lat="46.79708809" lon="6.50676548"><ele>981.162842</ele><time>2007-07-07T12:49:57Z</time></trkpt>
<trkpt lat="46.79718808" lon="6.50673816"><ele>981.643311</ele><time>2007-07-07T12:50:03Z</time></trkpt>
<trkpt lat="46.79721507" lon="6.50672684"><ele>982.124023</ele><time>2007-07-07T12:50:05Z</time></trkpt>
<trkpt lat="46.79725204" lon="6.50672542"><ele>982.604736</ele><time>2007-07-07T12:50:08Z</time></trkpt>
<trkpt lat="46.79735698" lon="6.50677437"><ele>983.565918</ele><time>2007-07-07T12:50:15Z</time></trkpt>
<trkpt lat="46.79746913" lon="6.50691099"><ele>985.008057</ele><time>2007-07-07T12:50:25Z</time></trkpt>
<trkpt lat="46.79756954" lon="6.50705265"><ele>987.411133</ele><time>2007-07-07T12:50:35Z</time></trkpt>
<trkpt lat="46.79766526" lon="6.50718282"><ele>988.853516</ele><time>2007-07-07T12:50:45Z</time></trkpt>
<trkpt lat="46.79776962" lon="6.50732322"><ele>990.775879</ele><time>2007-07-07T12:50:56Z</time></trkpt>
<trkpt lat="46.79785520" lon="6.50742724"><ele>991.256592</ele><time>2007-07-07T12:51:05Z</time></trkpt>
<trkpt lat="46.79795209" lon="6.50755154"><ele>992.69873</ele><time>2007-07-07T12:51:15Z</time></trkpt>
<trkpt lat="46.79804555" lon="6.50761675"><ele>993.179199</ele><time>2007-07-07T12:51:23Z</time></trkpt>
<trkpt lat="46.79815737" lon="6.50763066"><ele>995.101807</ele><time>2007-07-07T12:51:32Z</time></trkpt>
<trkpt lat="46.79827538" lon="6.50760476"><ele>996.543945</ele><time>2007-07-07T12:51:42Z</time></trkpt>
<trkpt lat="46.79836725" lon="6.50761189"><ele>998.466309</ele><time>2007-07-07T12:51:51Z</time></trkpt>
<trkpt lat="46.79839072" lon="6.50760636"><ele>998.466309</ele><time>2007-07-07T12:51:53Z</time></trkpt>
<trkpt lat="46.79848108" lon="6.50757828"><ele>999.427734</ele><time>2007-07-07T12:52:00Z</time></trkpt>
<trkpt lat="46.79852064" lon="6.50757560"><ele>999.427734</ele><time>2007-07-07T12:52:03Z</time></trkpt>
<trkpt lat="46.79855090" lon="6.50758113"><ele>999.908447</ele><time>2007-07-07T12:52:06Z</time></trkpt>
<trkpt lat="46.79865466" lon="6.50761608"><ele>1001.350342</ele><time>2007-07-07T12:52:14Z</time></trkpt>
<trkpt lat="46.79871577" lon="6.50766009"><ele>1001.831055</ele><time>2007-07-07T12:52:19Z</time></trkpt>
<trkpt lat="46.79881694" lon="6.50777902"><ele>1003.272949</ele><time>2007-07-07T12:52:28Z</time></trkpt>
<trkpt lat="46.79884024" lon="6.50791473"><ele>1004.715088</ele><time>2007-07-07T12:52:37Z</time></trkpt>
<trkpt lat="46.79883303" lon="6.50794473"><ele>1005.195801</ele><time>2007-07-07T12:52:39Z</time></trkpt>
<trkpt lat="46.79879573" lon="6.50811925"><ele>1007.599121</ele><time>2007-07-07T12:52:48Z</time></trkpt>
<trkpt lat="46.79880110" lon="6.50829535"><ele>1008.560303</ele><time>2007-07-07T12:52:56Z</time></trkpt>
<trkpt lat="46.79882817" lon="6.50846299"><ele>1010.002197</ele><time>2007-07-07T12:53:05Z</time></trkpt>
<trkpt lat="46.79889506" lon="6.50860590"><ele>1011.925049</ele><time>2007-07-07T12:53:14Z</time></trkpt>
<trkpt lat="46.79899556" lon="6.50873297"><ele>1012.88623</ele><time>2007-07-07T12:53:22Z</time></trkpt>
<trkpt lat="46.79905565" lon="6.50881612"><ele>1014.328125</ele><time>2007-07-07T12:53:28Z</time></trkpt>
<trkpt lat="46.79911332" lon="6.50889977"><ele>1015.770264</ele><time>2007-07-07T12:53:34Z</time></trkpt>
<trkpt lat="46.79912305" lon="6.50892165"><ele>1015.770264</ele><time>2007-07-07T12:53:36Z</time></trkpt>
<trkpt lat="46.79914509" lon="6.50894277"><ele>1016.731445</ele><time>2007-07-07T12:53:41Z</time></trkpt>
<trkpt lat="46.79922807" lon="6.50895132"><ele>1018.17334</ele><time>2007-07-07T12:53:48Z</time></trkpt>
<trkpt lat="46.79930284" lon="6.50887697"><ele>1019.134766</ele><time>2007-07-07T12:53:55Z</time></trkpt>
<trkpt lat="46.79931868" lon="6.50884185"><ele>1019.615479</ele><time>2007-07-07T12:53:57Z</time></trkpt>
<trkpt lat="46.79927886" lon="6.50867622"><ele>1020.576904</ele><time>2007-07-07T12:54:05Z</time></trkpt>
<trkpt lat="46.79926110" lon="6.50864772"><ele>1020.096191</ele><time>2007-07-07T12:54:07Z</time></trkpt>
<trkpt lat="46.79925925" lon="6.50859257"><ele>1021.538086</ele><time>2007-07-07T12:54:11Z</time></trkpt>
<trkpt lat="46.79919697" lon="6.50843600"><ele>1021.538086</ele><time>2007-07-07T12:54:19Z</time></trkpt>
<trkpt lat="46.79915506" lon="6.50825906"><ele>1022.980225</ele><time>2007-07-07T12:54:28Z</time></trkpt>
<trkpt lat="46.79914844" lon="6.50814506"><ele>1023.460938</ele><time>2007-07-07T12:54:34Z</time></trkpt>
<trkpt lat="46.79921717" lon="6.50798203"><ele>1025.383301</ele><time>2007-07-07T12:54:44Z</time></trkpt>
<trkpt lat="46.79928632" lon="6.50784574"><ele>1026.344727</ele><time>2007-07-07T12:54:53Z</time></trkpt>
<trkpt lat="46.79934684" lon="6.50771054"><ele>1029.228516</ele><time>2007-07-07T12:55:02Z</time></trkpt>
<trkpt lat="46.79934483" lon="6.50756964"><ele>1029.709229</ele><time>2007-07-07T12:55:09Z</time></trkpt>
<trkpt lat="46.79931290" lon="6.50749697"><ele>1030.189941</ele><time>2007-07-07T12:55:14Z</time></trkpt>
<trkpt lat="46.79925716" lon="6.50736588"><ele>1032.112549</ele><time>2007-07-07T12:55:23Z</time></trkpt>
<trkpt lat="46.79920594" lon="6.50729187"><ele>1033.07373</ele><time>2007-07-07T12:55:30Z</time></trkpt>
<trkpt lat="46.79915565" lon="6.50720143"><ele>1033.554443</ele><time>2007-07-07T12:55:37Z</time></trkpt>
<trkpt lat="46.79912288" lon="6.50705986"><ele>1034.515869</ele><time>2007-07-07T12:55:45Z</time></trkpt>
<trkpt lat="46.79910419" lon="6.50691720"><ele>1035.957764</ele><time>2007-07-07T12:55:53Z</time></trkpt>
<trkpt lat="46.79909765" lon="6.50685333"><ele>1036.438721</ele><time>2007-07-07T12:55:56Z</time></trkpt>
<trkpt lat="46.79907979" lon="6.50666515"><ele>1037.880615</ele><time>2007-07-07T12:56:05Z</time></trkpt>
<trkpt lat="46.79907007" lon="6.50652207"><ele>1039.32251</ele><time>2007-07-07T12:56:12Z</time></trkpt>
<trkpt lat="46.79905306" lon="6.50642250"><ele>1040.283936</ele><time>2007-07-07T12:56:18Z</time></trkpt>
<trkpt lat="46.79901592" lon="6.50630264"><ele>1040.764404</ele><time>2007-07-07T12:56:27Z</time></trkpt>
<trkpt lat="46.79901140" lon="6.50627883"><ele>1042.206543</ele><time>2007-07-07T12:56:29Z</time></trkpt>
<trkpt lat="46.79900687" lon="6.50624949"><ele>1042.206543</ele><time>2007-07-07T12:56:31Z</time></trkpt>
<trkpt lat="46.79893554" lon="6.50607632"><ele>1043.167725</ele><time>2007-07-07T12:56:41Z</time></trkpt>
<trkpt lat="46.79890176" lon="6.50596292"><ele>1044.12915</ele><time>2007-07-07T12:56:48Z</time></trkpt>
<trkpt lat="46.79887678" lon="6.50587809"><ele>1045.090332</ele><time>2007-07-07T12:56:53Z</time></trkpt>
<trkpt lat="46.79882465" lon="6.50575203"><ele>1046.532471</ele><time>2007-07-07T12:57:00Z</time></trkpt>
<trkpt lat="46.79876883" lon="6.50559043"><ele>1047.493652</ele><time>2007-07-07T12:57:08Z</time></trkpt>
<trkpt lat="46.79873697" lon="6.50543117"><ele>1048.935547</ele><time>2007-07-07T12:57:16Z</time></trkpt>
<trkpt lat="46.79870839" lon="6.50530234"><ele>1049.896973</ele><time>2007-07-07T12:57:23Z</time></trkpt>
<trkpt lat="46.79866455" lon="6.50510914"><ele>1051.338867</ele><time>2007-07-07T12:57:33Z</time></trkpt>
<trkpt lat="46.79863153" lon="6.50495432"><ele>1052.781006</ele><time>2007-07-07T12:57:42Z</time></trkpt>
<trkpt lat="46.79861988" lon="6.50479197"><ele>1054.223145</ele><time>2007-07-07T12:57:51Z</time></trkpt>
<trkpt lat="46.79861317" lon="6.50466565"><ele>1055.665039</ele><time>2007-07-07T12:57:59Z</time></trkpt>
<trkpt lat="46.79861443" lon="6.50463715"><ele>1055.665039</ele><time>2007-07-07T12:58:01Z</time></trkpt>
<trkpt lat="46.79862868" lon="6.50449835"><ele>1057.587646</ele><time>2007-07-07T12:58:08Z</time></trkpt>
<trkpt lat="46.79863539" lon="6.50436860"><ele>1057.587646</ele><time>2007-07-07T12:58:15Z</time></trkpt>
<trkpt lat="46.79863212" lon="6.50428863"><ele>1057.587646</ele><time>2007-07-07T12:58:19Z</time></trkpt>
<trkpt lat="46.79861963" lon="6.50413290"><ele>1059.510254</ele><time>2007-07-07T12:58:27Z</time></trkpt>
<trkpt lat="46.79861829" lon="6.50405109"><ele>1059.510254</ele><time>2007-07-07T12:58:31Z</time></trkpt>
<trkpt lat="46.79856699" lon="6.50391773"><ele>1060.471436</ele><time>2007-07-07T12:58:37Z</time></trkpt>
<trkpt lat="46.79847579" lon="6.50382008"><ele>1061.432861</ele><time>2007-07-07T12:58:46Z</time></trkpt>
<trkpt lat="46.79834797" lon="6.50373107"><ele>1062.874756</ele><time>2007-07-07T12:58:56Z</time></trkpt>
<trkpt lat="46.79829776" lon="6.50367608"><ele>1064.31665</ele><time>2007-07-07T12:59:01Z</time></trkpt>
<trkpt lat="46.79827857" lon="6.50364256"><ele>1065.278076</ele><time>2007-07-07T12:59:03Z</time></trkpt>
<trkpt lat="46.79820900" lon="6.50352269"><ele>1067.681152</ele><time>2007-07-07T12:59:11Z</time></trkpt>
<trkpt lat="46.79817589" lon="6.50330686"><ele>1068.162109</ele><time>2007-07-07T12:59:22Z</time></trkpt>
<trkpt lat="46.79810263" lon="6.50316412"><ele>1070.084717</ele><time>2007-07-07T12:59:31Z</time></trkpt>
<trkpt lat="46.79800616" lon="6.50305792"><ele>1071.046143</ele><time>2007-07-07T12:59:39Z</time></trkpt>
<trkpt lat="46.79793424" lon="6.50295289"><ele>1072.96875</ele><time>2007-07-07T12:59:46Z</time></trkpt>
<trkpt lat="46.79782670" lon="6.50283337"><ele>1074.410645</ele><time>2007-07-07T12:59:55Z</time></trkpt>
<trkpt lat="46.79771136" lon="6.50273387"><ele>1075.852539</ele><time>2007-07-07T13:00:04Z</time></trkpt>
<trkpt lat="46.79760626" lon="6.50267964"><ele>1077.294678</ele><time>2007-07-07T13:00:12Z</time></trkpt>
<trkpt lat="46.79748069" lon="6.50264016"><ele>1078.736572</ele><time>2007-07-07T13:00:21Z</time></trkpt>
<trkpt lat="46.79736762" lon="6.50258937"><ele>1079.217041</ele><time>2007-07-07T13:00:29Z</time></trkpt>
<trkpt lat="46.79726494" lon="6.50251863"><ele>1080.178467</ele><time>2007-07-07T13:00:37Z</time></trkpt>
<trkpt lat="46.79718029" lon="6.50242852"><ele>1081.620361</ele><time>2007-07-07T13:00:45Z</time></trkpt>
<trkpt lat="46.79708390" lon="6.50231235"><ele>1083.542969</ele><time>2007-07-07T13:00:54Z</time></trkpt>
<trkpt lat="46.79705062" lon="6.50226600"><ele>1084.504639</ele><time>2007-07-07T13:00:58Z</time></trkpt>
<trkpt lat="46.79697669" lon="6.50216600"><ele>1084.504639</ele><time>2007-07-07T13:01:05Z</time></trkpt>
<trkpt lat="46.79691643" lon="6.50208117"><ele>1084.985352</ele><time>2007-07-07T13:01:11Z</time></trkpt>
<trkpt lat="46.79686270" lon="6.50200976"><ele>1086.907715</ele><time>2007-07-07T13:01:17Z</time></trkpt>
<trkpt lat="46.79675206" lon="6.50190222"><ele>1088.349854</ele><time>2007-07-07T13:01:26Z</time></trkpt>
<trkpt lat="46.79673848" lon="6.50188956"><ele>1088.349854</ele><time>2007-07-07T13:01:27Z</time></trkpt>
<trkpt lat="46.79668492" lon="6.50184757"><ele>1089.311035</ele><time>2007-07-07T13:01:31Z</time></trkpt>
<trkpt lat="46.79656589" lon="6.50177104"><ele>1090.272461</ele><time>2007-07-07T13:01:40Z</time></trkpt>
<trkpt lat="46.79645265" lon="6.50168756"><ele>1092.675781</ele><time>2007-07-07T13:01:49Z</time></trkpt>
<trkpt lat="46.79635752" lon="6.50160768"><ele>1094.117676</ele><time>2007-07-07T13:01:57Z</time></trkpt>
<trkpt lat="46.79627303" lon="6.50148950"><ele>1095.078857</ele><time>2007-07-07T13:02:06Z</time></trkpt>
<trkpt lat="46.79620958" lon="6.50136427"><ele>1096.040283</ele><time>2007-07-07T13:02:14Z</time></trkpt>
<trkpt lat="46.79615417" lon="6.50125103"><ele>1096.520996</ele><time>2007-07-07T13:02:22Z</time></trkpt>
<trkpt lat="46.79608184" lon="6.50113695"><ele>1097.482178</ele><time>2007-07-07T13:02:30Z</time></trkpt>
<trkpt lat="46.79605175" lon="6.50109194"><ele>1097.962891</ele><time>2007-07-07T13:02:34Z</time></trkpt>
<trkpt lat="46.79602828" lon="6.50105506"><ele>1098.443359</ele><time>2007-07-07T13:02:37Z</time></trkpt>
<trkpt lat="46.79595980" lon="6.50090385"><ele>1099.885498</ele><time>2007-07-07T13:02:45Z</time></trkpt>
<trkpt lat="46.79594815" lon="6.50088474"><ele>1099.885498</ele><time>2007-07-07T13:02:46Z</time></trkpt>
<trkpt lat="46.79592887" lon="6.50081718"><ele>1100.366455</ele><time>2007-07-07T13:02:49Z</time></trkpt>
<trkpt lat="46.79590087" lon="6.50070730"><ele>1100.846924</ele><time>2007-07-07T13:02:54Z</time></trkpt>
<trkpt lat="46.79585813" lon="6.50055659"><ele>1102.769531</ele><time>2007-07-07T13:03:01Z</time></trkpt>
<trkpt lat="46.79588889" lon="6.50036414"><ele>1103.730957</ele><time>2007-07-07T13:03:09Z</time></trkpt>
<trkpt lat="46.79592250" lon="6.50010179"><ele>1105.653564</ele><time>2007-07-07T13:03:21Z</time></trkpt>
<trkpt lat="46.79598084" lon="6.49995795"><ele>1107.095459</ele><time>2007-07-07T13:03:29Z</time></trkpt>
<trkpt lat="46.79601680" lon="6.49978604"><ele>1109.018066</ele><time>2007-07-07T13:03:38Z</time></trkpt>
<trkpt lat="46.79601252" lon="6.49963634"><ele>1110.459961</ele><time>2007-07-07T13:03:46Z</time></trkpt>
<trkpt lat="46.79600045" lon="6.49948178"><ele>1111.421387</ele><time>2007-07-07T13:03:54Z</time></trkpt>
<trkpt lat="46.79599090" lon="6.49933300"><ele>1112.863281</ele><time>2007-07-07T13:04:01Z</time></trkpt>
<trkpt lat="46.79598603" lon="6.49920518"><ele>1114.305176</ele><time>2007-07-07T13:04:08Z</time></trkpt>
<trkpt lat="46.79594454" lon="6.49897903"><ele>1116.228027</ele><time>2007-07-07T13:04:19Z</time></trkpt>
<trkpt lat="46.79593423" lon="6.49891667"><ele>1116.228027</ele><time>2007-07-07T13:04:22Z</time></trkpt>
<trkpt lat="46.79592786" lon="6.49878164"><ele>1118.150635</ele><time>2007-07-07T13:04:29Z</time></trkpt>
<trkpt lat="46.79590624" lon="6.49862062"><ele>1120.073242</ele><time>2007-07-07T13:04:37Z</time></trkpt>
<trkpt lat="46.79588176" lon="6.49848643"><ele>1121.034668</ele><time>2007-07-07T13:04:44Z</time></trkpt>
<trkpt lat="46.79583642" lon="6.49834796"><ele>1121.99585</ele><time>2007-07-07T13:04:52Z</time></trkpt>
<trkpt lat="46.79574522" lon="6.49822692"><ele>1121.99585</ele><time>2007-07-07T13:05:00Z</time></trkpt>
<trkpt lat="46.79563735" lon="6.49812634"><ele>1123.918457</ele><time>2007-07-07T13:05:08Z</time></trkpt>
<trkpt lat="46.79560742" lon="6.49810388"><ele>1125.360352</ele><time>2007-07-07T13:05:10Z</time></trkpt>
<trkpt lat="46.79548656" lon="6.49803992"><ele>1126.321777</ele><time>2007-07-07T13:05:18Z</time></trkpt>
<trkpt lat="46.79534616" lon="6.49799039"><ele>1128.244385</ele><time>2007-07-07T13:05:28Z</time></trkpt>
<trkpt lat="46.79523208" lon="6.49794026"><ele>1129.686279</ele><time>2007-07-07T13:05:36Z</time></trkpt>
<trkpt lat="46.79511876" lon="6.49788368"><ele>1131.128418</ele><time>2007-07-07T13:05:44Z</time></trkpt>
<trkpt lat="46.79498289" lon="6.49781889"><ele>1132.089844</ele><time>2007-07-07T13:05:54Z</time></trkpt>
<trkpt lat="46.79487837" lon="6.49777279"><ele>1133.531738</ele><time>2007-07-07T13:06:02Z</time></trkpt>
<trkpt lat="46.79481374" lon="6.49774957"><ele>1134.012451</ele><time>2007-07-07T13:06:08Z</time></trkpt>
<trkpt lat="46.79474769" lon="6.49774387"><ele>1134.973877</ele><time>2007-07-07T13:06:14Z</time></trkpt>
<trkpt lat="46.79467418" lon="6.49776416"><ele>1136.415771</ele><time>2007-07-07T13:06:21Z</time></trkpt>
<trkpt lat="46.79464526" lon="6.49776843"><ele>1136.415771</ele><time>2007-07-07T13:06:23Z</time></trkpt>
<trkpt lat="46.79456446" lon="6.49779609"><ele>1137.376953</ele><time>2007-07-07T13:06:30Z</time></trkpt>
<trkpt lat="46.79449674" lon="6.49779375"><ele>1138.819092</ele><time>2007-07-07T13:06:37Z</time></trkpt>
<trkpt lat="46.79437009" lon="6.49778092"><ele>1140.260986</ele><time>2007-07-07T13:06:45Z</time></trkpt>
<trkpt lat="46.79427353" lon="6.49777095"><ele>1140.741455</ele><time>2007-07-07T13:06:51Z</time></trkpt>
<trkpt lat="46.79410740" lon="6.49775335"><ele>1142.183594</ele><time>2007-07-07T13:07:01Z</time></trkpt>
<trkpt lat="46.79399667" lon="6.49770448"><ele>1142.664307</ele><time>2007-07-07T13:07:08Z</time></trkpt>
<trkpt lat="46.79392325" lon="6.49768579"><ele>1144.58667</ele><time>2007-07-07T13:07:13Z</time></trkpt>
<trkpt lat="46.79379869" lon="6.49760624"><ele>1146.028809</ele><time>2007-07-07T13:07:22Z</time></trkpt>
<trkpt lat="46.79370322" lon="6.49755386"><ele>1146.98999</ele><time>2007-07-07T13:07:29Z</time></trkpt>
<trkpt lat="46.79360683" lon="6.49748848"><ele>1148.432129</ele><time>2007-07-07T13:07:36Z</time></trkpt>
<trkpt lat="46.79357682" lon="6.49746727"><ele>1148.912842</ele><time>2007-07-07T13:07:39Z</time></trkpt>
<trkpt lat="46.79348865" lon="6.49739468"><ele>1149.874268</ele><time>2007-07-07T13:07:46Z</time></trkpt>
<trkpt lat="46.79347339" lon="6.49736904"><ele>1150.35498</ele><time>2007-07-07T13:07:49Z</time></trkpt>
<trkpt lat="46.79345302" lon="6.49735328"><ele>1150.835449</ele><time>2007-07-07T13:07:51Z</time></trkpt>
<trkpt lat="46.79339527" lon="6.49726334"><ele>1152.277344</ele><time>2007-07-07T13:07:59Z</time></trkpt>
<trkpt lat="46.79337155" lon="6.49722755"><ele>1152.758057</ele><time>2007-07-07T13:08:02Z</time></trkpt>
<trkpt lat="46.79333333" lon="6.49718514"><ele>1152.758057</ele><time>2007-07-07T13:08:05Z</time></trkpt>
<trkpt lat="46.79328564" lon="6.49713459"><ele>1153.719482</ele><time>2007-07-07T13:08:09Z</time></trkpt>
<trkpt lat="46.79326435" lon="6.49710417"><ele>1154.200195</ele><time>2007-07-07T13:08:11Z</time></trkpt>
<trkpt lat="46.79320358" lon="6.49698590"><ele>1155.64209</ele><time>2007-07-07T13:08:18Z</time></trkpt>
<trkpt lat="46.79314415" lon="6.49690174"><ele>1156.603271</ele><time>2007-07-07T13:08:23Z</time></trkpt>
<trkpt lat="46.79307735" lon="6.49680376"><ele>1158.04541</ele><time>2007-07-07T13:08:30Z</time></trkpt>
<trkpt lat="46.79305907" lon="6.49677417"><ele>1157.564697</ele><time>2007-07-07T13:08:32Z</time></trkpt>
<trkpt lat="46.79299914" lon="6.49665733"><ele>1159.006592</ele><time>2007-07-07T13:08:42Z</time></trkpt>
<trkpt lat="46.79298355" lon="6.49663327"><ele>1159.967773</ele><time>2007-07-07T13:08:44Z</time></trkpt>
<trkpt lat="46.79296847" lon="6.49660628"><ele>1160.448486</ele><time>2007-07-07T13:08:46Z</time></trkpt>
<trkpt lat="46.79287978" lon="6.49647812"><ele>1160.929199</ele><time>2007-07-07T13:08:54Z</time></trkpt>
<trkpt lat="46.79281642" lon="6.49636187"><ele>1160.929199</ele><time>2007-07-07T13:09:01Z</time></trkpt>
<trkpt lat="46.79273536" lon="6.49623362"><ele>1162.371094</ele><time>2007-07-07T13:09:09Z</time></trkpt>
<trkpt lat="46.79264442" lon="6.49611795"><ele>1163.33252</ele><time>2007-07-07T13:09:17Z</time></trkpt>
<trkpt lat="46.79258399" lon="6.49602835"><ele>1164.293945</ele><time>2007-07-07T13:09:23Z</time></trkpt>
<trkpt lat="46.79249497" lon="6.49591008"><ele>1167.177979</ele><time>2007-07-07T13:09:32Z</time></trkpt>
<trkpt lat="46.79244728" lon="6.49582819"><ele>1167.658447</ele><time>2007-07-07T13:09:38Z</time></trkpt>
<trkpt lat="46.79239422" lon="6.49574580"><ele>1168.619873</ele><time>2007-07-07T13:09:44Z</time></trkpt>
<trkpt lat="46.79233362" lon="6.49564907"><ele>1170.061768</ele><time>2007-07-07T13:09:53Z</time></trkpt>
<trkpt lat="46.79232608" lon="6.49563356"><ele>1170.061768</ele><time>2007-07-07T13:09:54Z</time></trkpt>
<trkpt lat="46.79231409" lon="6.49560674"><ele>1170.061768</ele><time>2007-07-07T13:09:56Z</time></trkpt>
<trkpt lat="46.79229137" lon="6.49556207"><ele>1170.54248</ele><time>2007-07-07T13:09:59Z</time></trkpt>
<trkpt lat="46.79218995" lon="6.49537783"><ele>1171.984375</ele><time>2007-07-07T13:10:11Z</time></trkpt>
<trkpt lat="46.79216833" lon="6.49534707"><ele>1172.465088</ele><time>2007-07-07T13:10:13Z</time></trkpt>
<trkpt lat="46.79213916" lon="6.49529477"><ele>1172.465088</ele><time>2007-07-07T13:10:17Z</time></trkpt>
<trkpt lat="46.79211049" lon="6.49524800"><ele>1172.945801</ele><time>2007-07-07T13:10:20Z</time></trkpt>
<trkpt lat="46.79206716" lon="6.49519226"><ele>1172.945801</ele><time>2007-07-07T13:10:24Z</time></trkpt>
<trkpt lat="46.79200949" lon="6.49511615"><ele>1173.906982</ele><time>2007-07-07T13:10:29Z</time></trkpt>
<trkpt lat="46.79196658" lon="6.49502755"><ele>1174.868408</ele><time>2007-07-07T13:10:36Z</time></trkpt>
<trkpt lat="46.79192022" lon="6.49494918"><ele>1175.82959</ele><time>2007-07-07T13:10:41Z</time></trkpt>
<trkpt lat="46.79188628" lon="6.49489034"><ele>1176.310303</ele><time>2007-07-07T13:10:45Z</time></trkpt>
<trkpt lat="46.79184814" lon="6.49484290"><ele>1177.271729</ele><time>2007-07-07T13:10:48Z</time></trkpt>
<trkpt lat="46.79178930" lon="6.49473838"><ele>1178.23291</ele><time>2007-07-07T13:10:55Z</time></trkpt>
<trkpt lat="46.79172518" lon="6.49464534"><ele>1179.194092</ele><time>2007-07-07T13:11:01Z</time></trkpt>
<trkpt lat="46.79164454" lon="6.49453595"><ele>1180.155762</ele><time>2007-07-07T13:11:09Z</time></trkpt>
<trkpt lat="46.79159626" lon="6.49444392"><ele>1181.597656</ele><time>2007-07-07T13:11:15Z</time></trkpt>
<trkpt lat="46.79153717" lon="6.49429388"><ele>1182.559082</ele><time>2007-07-07T13:11:23Z</time></trkpt>
<trkpt lat="46.79147959" lon="6.49418039"><ele>1184.481689</ele><time>2007-07-07T13:11:30Z</time></trkpt>
<trkpt lat="46.79141312" lon="6.49402692"><ele>1185.923584</ele><time>2007-07-07T13:11:39Z</time></trkpt>
<trkpt lat="46.79135210" lon="6.49390706"><ele>1186.884766</ele><time>2007-07-07T13:11:47Z</time></trkpt>
<trkpt lat="46.79133366" lon="6.49386892"><ele>1187.846191</ele><time>2007-07-07T13:11:50Z</time></trkpt>
<trkpt lat="46.79126870" lon="6.49375987"><ele>1189.288086</ele><time>2007-07-07T13:11:57Z</time></trkpt>
<trkpt lat="46.79119100" lon="6.49364144"><ele>1190.249512</ele><time>2007-07-07T13:12:05Z</time></trkpt>
<trkpt lat="46.79116887" lon="6.49362316"><ele>1190.249512</ele><time>2007-07-07T13:12:07Z</time></trkpt>
<trkpt lat="46.79110659" lon="6.49350917"><ele>1191.691406</ele><time>2007-07-07T13:12:14Z</time></trkpt>
<trkpt lat="46.79106326" lon="6.49341747"><ele>1193.133301</ele><time>2007-07-07T13:12:20Z</time></trkpt>
<trkpt lat="46.79102663" lon="6.49337967"><ele>1192.652832</ele><time>2007-07-07T13:12:23Z</time></trkpt>
<trkpt lat="46.79096343" lon="6.49323458"><ele>1193.614014</ele><time>2007-07-07T13:12:30Z</time></trkpt>
<trkpt lat="46.79088229" lon="6.49309192"><ele>1195.536621</ele><time>2007-07-07T13:12:37Z</time></trkpt>
<trkpt lat="46.79081683" lon="6.49296477"><ele>1197.459473</ele><time>2007-07-07T13:12:44Z</time></trkpt>
<trkpt lat="46.79074676" lon="6.49288857"><ele>1197.459473</ele><time>2007-07-07T13:12:49Z</time></trkpt>
<trkpt lat="46.79065548" lon="6.49273384"><ele>1198.420654</ele><time>2007-07-07T13:12:57Z</time></trkpt>
<trkpt lat="46.79057208" lon="6.49257945"><ele>1201.7854</ele><time>2007-07-07T13:13:06Z</time></trkpt>
<trkpt lat="46.79050058" lon="6.49245548"><ele>1202.265869</ele><time>2007-07-07T13:13:14Z</time></trkpt>
<trkpt lat="46.79039187" lon="6.49235842"><ele>1204.188721</ele><time>2007-07-07T13:14:13Z</time></trkpt>
<trkpt lat="46.79038944" lon="6.49234149"><ele>1204.188721</ele><time>2007-07-07T13:14:14Z</time></trkpt>
<trkpt lat="46.79034384" lon="6.49218575"><ele>1205.630615</ele><time>2007-07-07T13:14:22Z</time></trkpt>
<trkpt lat="46.79028592" lon="6.49204443"><ele>1206.591797</ele><time>2007-07-07T13:14:29Z</time></trkpt>
<trkpt lat="46.79026756" lon="6.49201417"><ele>1207.07251</ele><time>2007-07-07T13:14:31Z</time></trkpt>
<trkpt lat="46.79021409" lon="6.49187109"><ele>1208.514404</ele><time>2007-07-07T13:14:38Z</time></trkpt>
<trkpt lat="46.79019556" lon="6.49175727"><ele>1208.995117</ele><time>2007-07-07T13:14:43Z</time></trkpt>
<trkpt lat="46.79018517" lon="6.49168678"><ele>1208.995117</ele><time>2007-07-07T13:14:45Z</time></trkpt>
<trkpt lat="46.79015097" lon="6.49154806"><ele>1209.956299</ele><time>2007-07-07T13:14:51Z</time></trkpt>
<trkpt lat="46.79009867" lon="6.49141738"><ele>1210.437012</ele><time>2007-07-07T13:14:57Z</time></trkpt>
<trkpt lat="46.79004813" lon="6.49128763"><ele>1211.398438</ele><time>2007-07-07T13:15:03Z</time></trkpt>
<trkpt lat="46.78998576" lon="6.49115696"><ele>1211.87915</ele><time>2007-07-07T13:15:10Z</time></trkpt>
<trkpt lat="46.78994042" lon="6.49102729"><ele>1212.840576</ele><time>2007-07-07T13:15:16Z</time></trkpt>
<trkpt lat="46.78988627" lon="6.49083769"><ele>1214.282471</ele><time>2007-07-07T13:15:24Z</time></trkpt>
<trkpt lat="46.78981737" lon="6.49066494"><ele>1215.724609</ele><time>2007-07-07T13:15:32Z</time></trkpt>
<trkpt lat="46.78978812" lon="6.49058766"><ele>1216.685791</ele><time>2007-07-07T13:15:36Z</time></trkpt>
<trkpt lat="46.78970950" lon="6.49046084"><ele>1217.646973</ele><time>2007-07-07T13:15:43Z</time></trkpt>
<trkpt lat="46.78968226" lon="6.49037015"><ele>1218.608398</ele><time>2007-07-07T13:15:48Z</time></trkpt>
<trkpt lat="46.78960606" lon="6.49022874"><ele>1219.569824</ele><time>2007-07-07T13:15:55Z</time></trkpt>
<trkpt lat="46.78955996" lon="6.49012439"><ele>1220.531006</ele><time>2007-07-07T13:16:00Z</time></trkpt>
<trkpt lat="46.78950925" lon="6.48996488"><ele>1222.453613</ele><time>2007-07-07T13:16:07Z</time></trkpt>
<trkpt lat="46.78945620" lon="6.48981225"><ele>1223.895508</ele><time>2007-07-07T13:16:14Z</time></trkpt>
<trkpt lat="46.78940532" lon="6.48964947"><ele>1225.818115</ele><time>2007-07-07T13:16:22Z</time></trkpt>
<trkpt lat="46.78937665" lon="6.48952349"><ele>1227.740723</ele><time>2007-07-07T13:16:28Z</time></trkpt>
<trkpt lat="46.78931052" lon="6.48934060"><ele>1228.22168</ele><time>2007-07-07T13:16:36Z</time></trkpt>
<trkpt lat="46.78924715" lon="6.48917212"><ele>1229.182861</ele><time>2007-07-07T13:16:44Z</time></trkpt>
<trkpt lat="46.78918957" lon="6.48900406"><ele>1230.625</ele><time>2007-07-07T13:16:51Z</time></trkpt>
<trkpt lat="46.78912503" lon="6.48878974"><ele>1231.586182</ele><time>2007-07-07T13:17:00Z</time></trkpt>
<trkpt lat="46.78903744" lon="6.48854624"><ele>1233.028076</ele><time>2007-07-07T13:17:10Z</time></trkpt>
<trkpt lat="46.78897457" lon="6.48833527"><ele>1233.989502</ele><time>2007-07-07T13:17:19Z</time></trkpt>
<trkpt lat="46.78892068" lon="6.48809924"><ele>1235.912109</ele><time>2007-07-07T13:17:29Z</time></trkpt>
<trkpt lat="46.78889134" lon="6.48791743"><ele>1237.834717</ele><time>2007-07-07T13:17:37Z</time></trkpt>
<trkpt lat="46.78887877" lon="6.48769339"><ele>1239.276611</ele><time>2007-07-07T13:17:47Z</time></trkpt>
<trkpt lat="46.78889863" lon="6.48749306"><ele>1240.718506</ele><time>2007-07-07T13:17:56Z</time></trkpt>
<trkpt lat="46.78891322" lon="6.48729214"><ele>1242.641357</ele><time>2007-07-07T13:18:05Z</time></trkpt>
<trkpt lat="46.78892084" lon="6.48709307"><ele>1243.602539</ele><time>2007-07-07T13:18:14Z</time></trkpt>
<trkpt lat="46.78890668" lon="6.48694304"><ele>1245.044678</ele><time>2007-07-07T13:18:21Z</time></trkpt>
<trkpt lat="46.78888162" lon="6.48672159"><ele>1247.447998</ele><time>2007-07-07T13:18:31Z</time></trkpt>
<trkpt lat="46.78885119" lon="6.48654649"><ele>1248.889893</ele><time>2007-07-07T13:18:39Z</time></trkpt>
<trkpt lat="46.78881289" lon="6.48632127"><ele>1249.370605</ele><time>2007-07-07T13:18:49Z</time></trkpt>
<trkpt lat="46.78879696" lon="6.48609890"><ele>1249.370605</ele><time>2007-07-07T13:18:59Z</time></trkpt>
<trkpt lat="46.78880660" lon="6.48601399"><ele>1249.851318</ele><time>2007-07-07T13:19:03Z</time></trkpt>
<trkpt lat="46.78880677" lon="6.48581483"><ele>1251.773926</ele><time>2007-07-07T13:19:12Z</time></trkpt>
<trkpt lat="46.78876905" lon="6.48558509"><ele>1252.254395</ele><time>2007-07-07T13:19:22Z</time></trkpt>
<trkpt lat="46.78871255" lon="6.48538174"><ele>1253.696533</ele><time>2007-07-07T13:19:31Z</time></trkpt>
<trkpt lat="46.78863049" lon="6.48520933"><ele>1256.099609</ele><time>2007-07-07T13:19:40Z</time></trkpt>
<trkpt lat="46.78852555" lon="6.48498737"><ele>1256.099609</ele><time>2007-07-07T13:19:51Z</time></trkpt>
<trkpt lat="46.78844366" lon="6.48480666"><ele>1258.022461</ele><time>2007-07-07T13:20:00Z</time></trkpt>
<trkpt lat="46.78839144" lon="6.48458119"><ele>1258.983643</ele><time>2007-07-07T13:20:10Z</time></trkpt>
<trkpt lat="46.78834249" lon="6.48435278"><ele>1260.425781</ele><time>2007-07-07T13:20:20Z</time></trkpt>
<trkpt lat="46.78830125" lon="6.48412487"><ele>1261.86792</ele><time>2007-07-07T13:20:30Z</time></trkpt>
<trkpt lat="46.78828826" lon="6.48384090"><ele>1263.309814</ele><time>2007-07-07T13:20:42Z</time></trkpt>
<trkpt lat="46.78827133" lon="6.48359640"><ele>1265.232422</ele><time>2007-07-07T13:20:52Z</time></trkpt>
<trkpt lat="46.78824727" lon="6.48337956"><ele>1265.713135</ele><time>2007-07-07T13:21:01Z</time></trkpt>
<trkpt lat="46.78824459" lon="6.48321167"><ele>1265.713135</ele><time>2007-07-07T13:21:08Z</time></trkpt>
<trkpt lat="46.78822875" lon="6.48297588"><ele>1267.155029</ele><time>2007-07-07T13:21:18Z</time></trkpt>
<trkpt lat="46.78819765" lon="6.48274790"><ele>1267.155029</ele><time>2007-07-07T13:21:27Z</time></trkpt>
<trkpt lat="46.78813060" lon="6.48247297"><ele>1268.596924</ele><time>2007-07-07T13:21:37Z</time></trkpt>
<trkpt lat="46.78804125" lon="6.48224255"><ele>1269.077637</ele><time>2007-07-07T13:21:46Z</time></trkpt>
<trkpt lat="46.78794293" lon="6.48207156"><ele>1271.000244</ele><time>2007-07-07T13:21:54Z</time></trkpt>
<trkpt lat="46.78782659" lon="6.48188557"><ele>1273.884033</ele><time>2007-07-07T13:22:03Z</time></trkpt>
<trkpt lat="46.78769826" lon="6.48163344"><ele>1274.364746</ele><time>2007-07-07T13:22:14Z</time></trkpt>
<trkpt lat="46.78760103" lon="6.48142498"><ele>1275.325928</ele><time>2007-07-07T13:22:23Z</time></trkpt>
<trkpt lat="46.78753247" lon="6.48123002"><ele>1275.806641</ele><time>2007-07-07T13:22:31Z</time></trkpt>
<trkpt lat="46.78744236" lon="6.48096884"><ele>1278.210205</ele><time>2007-07-07T13:22:41Z</time></trkpt>
<trkpt lat="46.78737053" lon="6.48069726"><ele>1279.6521</ele><time>2007-07-07T13:22:51Z</time></trkpt>
<trkpt lat="46.78731143" lon="6.48036903"><ele>1279.6521</ele><time>2007-07-07T13:23:02Z</time></trkpt>
<trkpt lat="46.78728109" lon="6.48006703"><ele>1280.132813</ele><time>2007-07-07T13:23:11Z</time></trkpt>
<trkpt lat="46.78728537" lon="6.47971013"><ele>1281.094238</ele><time>2007-07-07T13:23:21Z</time></trkpt>
<trkpt lat="46.78730356" lon="6.47939094"><ele>1281.094238</ele><time>2007-07-07T13:23:28Z</time></trkpt>
<trkpt lat="46.78736290" lon="6.47896623"><ele>1281.574707</ele><time>2007-07-07T13:23:37Z</time></trkpt>
<trkpt lat="46.78743775" lon="6.47834086"><ele>1282.05542</ele><time>2007-07-07T13:23:49Z</time></trkpt>
<trkpt lat="46.78749575" lon="6.47782696"><ele>1281.574707</ele><time>2007-07-07T13:23:58Z</time></trkpt>
<trkpt lat="46.78758997" lon="6.47706253"><ele>1283.016602</ele><time>2007-07-07T13:24:10Z</time></trkpt>
<trkpt lat="46.78765995" lon="6.47641486"><ele>1283.016602</ele><time>2007-07-07T13:24:20Z</time></trkpt>
<trkpt lat="46.78769918" lon="6.47573895"><ele>1283.016602</ele><time>2007-07-07T13:24:30Z</time></trkpt>
<trkpt lat="46.78771452" lon="6.47511525"><ele>1283.016602</ele><time>2007-07-07T13:24:39Z</time></trkpt>
<trkpt lat="46.78773439" lon="6.47427673"><ele>1283.016602</ele><time>2007-07-07T13:24:51Z</time></trkpt>
<trkpt lat="46.78775207" lon="6.47357424"><ele>1283.497314</ele><time>2007-07-07T13:25:01Z</time></trkpt>
<trkpt lat="46.78775475" lon="6.47334047"><ele>1283.497314</ele><time>2007-07-07T13:25:05Z</time></trkpt>
<trkpt lat="46.78775987" lon="6.47299253"><ele>1283.497314</ele><time>2007-07-07T13:25:10Z</time></trkpt>
<trkpt lat="46.78775115" lon="6.47269984"><ele>1283.497314</ele><time>2007-07-07T13:25:14Z</time></trkpt>
<trkpt lat="46.78777076" lon="6.47243128"><ele>1283.497314</ele><time>2007-07-07T13:25:18Z</time></trkpt>
<trkpt lat="46.78779976" lon="6.47176433"><ele>1284.45874</ele><time>2007-07-07T13:25:27Z</time></trkpt>
<trkpt lat="46.78781024" lon="6.47147759"><ele>1284.45874</ele><time>2007-07-07T13:25:31Z</time></trkpt>
<trkpt lat="46.78781167" lon="6.47139494"><ele>1283.497314</ele><time>2007-07-07T13:25:32Z</time></trkpt>
<trkpt lat="46.78783254" lon="6.47097836"><ele>1284.45874</ele><time>2007-07-07T13:25:38Z</time></trkpt>
<trkpt lat="46.78783178" lon="6.47090418"><ele>1284.45874</ele><time>2007-07-07T13:25:39Z</time></trkpt>
<trkpt lat="46.78781787" lon="6.47038274"><ele>1284.45874</ele><time>2007-07-07T13:25:46Z</time></trkpt>
<trkpt lat="46.78781779" lon="6.47030169"><ele>1283.978027</ele><time>2007-07-07T13:25:47Z</time></trkpt>
<trkpt lat="46.78782642" lon="6.47005443"><ele>1284.45874</ele><time>2007-07-07T13:25:50Z</time></trkpt>
<trkpt lat="46.78782583" lon="6.46959099"><ele>1283.978027</ele><time>2007-07-07T13:25:56Z</time></trkpt>
<trkpt lat="46.78782365" lon="6.46951237"><ele>1283.978027</ele><time>2007-07-07T13:25:57Z</time></trkpt>
<trkpt lat="46.78782307" lon="6.46928865"><ele>1284.939453</ele><time>2007-07-07T13:26:00Z</time></trkpt>
<trkpt lat="46.78782935" lon="6.46875456"><ele>1284.45874</ele><time>2007-07-07T13:26:07Z</time></trkpt>
<trkpt lat="46.78779968" lon="6.46839648"><ele>1284.939453</ele><time>2007-07-07T13:26:12Z</time></trkpt>
<trkpt lat="46.78778878" lon="6.46802416"><ele>1284.939453</ele><time>2007-07-07T13:26:17Z</time></trkpt>
<trkpt lat="46.78780789" lon="6.46770783"><ele>1284.939453</ele><time>2007-07-07T13:26:21Z</time></trkpt>
<trkpt lat="46.78791828" lon="6.46729728"><ele>1284.939453</ele><time>2007-07-07T13:26:27Z</time></trkpt>
<trkpt lat="46.78807016" lon="6.46694692"><ele>1284.939453</ele><time>2007-07-07T13:26:33Z</time></trkpt>
<trkpt lat="46.78817796" lon="6.46677517"><ele>1284.939453</ele><time>2007-07-07T13:26:36Z</time></trkpt>
<trkpt lat="46.78837133" lon="6.46657770"><ele>1285.419922</ele><time>2007-07-07T13:26:41Z</time></trkpt>
<trkpt lat="46.78841047" lon="6.46655289"><ele>1285.419922</ele><time>2007-07-07T13:26:42Z</time></trkpt>
<trkpt lat="46.78864575" lon="6.46639782"><ele>1285.900635</ele><time>2007-07-07T13:26:48Z</time></trkpt>
<trkpt lat="46.78881993" lon="6.46629615"><ele>1285.900635</ele><time>2007-07-07T13:26:53Z</time></trkpt>
<trkpt lat="46.78887106" lon="6.46627888"><ele>1285.900635</ele><time>2007-07-07T13:26:54Z</time></trkpt>
<trkpt lat="46.78905864" lon="6.46612859"><ele>1286.861816</ele><time>2007-07-07T13:26:59Z</time></trkpt>
<trkpt lat="46.78920968" lon="6.46587336"><ele>1286.381348</ele><time>2007-07-07T13:27:06Z</time></trkpt>
<trkpt lat="46.78925268" lon="6.46568779"><ele>1287.342529</ele><time>2007-07-07T13:27:18Z</time></trkpt>
<trkpt lat="46.78925009" lon="6.46562124"><ele>1287.342529</ele><time>2007-07-07T13:27:21Z</time></trkpt>
<trkpt lat="46.78918538" lon="6.46557203"><ele>1286.861816</ele><time>2007-07-07T13:27:54Z</time></trkpt>
<trkpt lat="46.78918018" lon="6.46565166"><ele>1287.823242</ele><time>2007-07-07T13:28:07Z</time></trkpt>
<trkpt lat="46.78920843" lon="6.46564789"><ele>1287.823242</ele><time>2007-07-07T13:28:09Z</time></trkpt>
<trkpt lat="46.78927632" lon="6.46563247"><ele>1288.784668</ele><time>2007-07-07T13:28:14Z</time></trkpt>
<trkpt lat="46.78947749" lon="6.46563188"><ele>1294.072021</ele><time>2007-07-07T13:28:30Z</time></trkpt>
<trkpt lat="46.78955879" lon="6.46563649"><ele>1295.033203</ele><time>2007-07-07T13:28:36Z</time></trkpt>
<trkpt lat="46.78956684" lon="6.46563012"><ele>1295.033203</ele><time>2007-07-07T13:28:37Z</time></trkpt>
<trkpt lat="46.78959852" lon="6.46562794"><ele>1295.994629</ele><time>2007-07-07T13:28:40Z</time></trkpt>
<trkpt lat="46.78968812" lon="6.46565619"><ele>1297.436523</ele><time>2007-07-07T13:28:47Z</time></trkpt>
<trkpt lat="46.78971117" lon="6.46565954"><ele>1298.397705</ele><time>2007-07-07T13:28:49Z</time></trkpt>
<trkpt lat="46.78973263" lon="6.46566474"><ele>1298.397705</ele><time>2007-07-07T13:28:51Z</time></trkpt>
<trkpt lat="46.78975669" lon="6.46567094"><ele>1298.878418</ele><time>2007-07-07T13:28:53Z</time></trkpt>
<trkpt lat="46.78980539" lon="6.46566776"><ele>1299.359131</ele><time>2007-07-07T13:28:57Z</time></trkpt>
<trkpt lat="46.78992248" lon="6.46565745"><ele>1301.762451</ele><time>2007-07-07T13:29:06Z</time></trkpt>
<trkpt lat="46.78997168" lon="6.46565979"><ele>1302.723633</ele><time>2007-07-07T13:29:09Z</time></trkpt>
<trkpt lat="46.79004528" lon="6.46565409"><ele>1303.685059</ele><time>2007-07-07T13:29:15Z</time></trkpt>
<trkpt lat="46.79015927" lon="6.46567949"><ele>1305.607666</ele><time>2007-07-07T13:29:23Z</time></trkpt>
<trkpt lat="46.79018685" lon="6.46568729"><ele>1305.607666</ele><time>2007-07-07T13:29:25Z</time></trkpt>
<trkpt lat="46.79023077" lon="6.46570338"><ele>1305.607666</ele><time>2007-07-07T13:29:28Z</time></trkpt>
<trkpt lat="46.79025893" lon="6.46570556"><ele>1306.568848</ele><time>2007-07-07T13:29:30Z</time></trkpt>
<trkpt lat="46.79034820" lon="6.46573992"><ele>1307.530273</ele><time>2007-07-07T13:29:36Z</time></trkpt>
<trkpt lat="46.79046999" lon="6.46575015"><ele>1309.453125</ele><time>2007-07-07T13:29:43Z</time></trkpt>
<trkpt lat="46.79052019" lon="6.46575987"><ele>1309.933594</ele><time>2007-07-07T13:29:47Z</time></trkpt>
<trkpt lat="46.79057267" lon="6.46576867"><ele>1310.414307</ele><time>2007-07-07T13:29:52Z</time></trkpt>
<trkpt lat="46.79062723" lon="6.46576943"><ele>1310.89502</ele><time>2007-07-07T13:29:57Z</time></trkpt>
<trkpt lat="46.79070024" lon="6.46573858"><ele>1311.375732</ele><time>2007-07-07T13:30:03Z</time></trkpt>
<trkpt lat="46.79075589" lon="6.46571738"><ele>1312.817627</ele><time>2007-07-07T13:30:08Z</time></trkpt>
<trkpt lat="46.79086880" lon="6.46569533"><ele>1315.220947</ele><time>2007-07-07T13:30:19Z</time></trkpt>
<trkpt lat="46.79088615" lon="6.46569039"><ele>1315.70166</ele><time>2007-07-07T13:30:21Z</time></trkpt>
<trkpt lat="46.79098472" lon="6.46566147"><ele>1318.585449</ele><time>2007-07-07T13:30:32Z</time></trkpt>
<trkpt lat="46.79100517" lon="6.46565317"><ele>1318.585449</ele><time>2007-07-07T13:30:34Z</time></trkpt>
<trkpt lat="46.79105915" lon="6.46568016"><ele>1320.027344</ele><time>2007-07-07T13:30:38Z</time></trkpt>
<trkpt lat="46.79113258" lon="6.46571419"><ele>1320.98877</ele><time>2007-07-07T13:30:44Z</time></trkpt>
<trkpt lat="46.79116116" lon="6.46571964"><ele>1321.949951</ele><time>2007-07-07T13:30:46Z</time></trkpt>
<trkpt lat="46.79118765" lon="6.46572475"><ele>1322.430664</ele><time>2007-07-07T13:30:48Z</time></trkpt>
<trkpt lat="46.79128907" lon="6.46576909"><ele>1323.39209</ele><time>2007-07-07T13:30:57Z</time></trkpt>
<trkpt lat="46.79132335" lon="6.46579298"><ele>1323.872559</ele><time>2007-07-07T13:31:00Z</time></trkpt>
<trkpt lat="46.79140499" lon="6.46585744"><ele>1323.872559</ele><time>2007-07-07T13:31:06Z</time></trkpt>
<trkpt lat="46.79150289" lon="6.46594947"><ele>1324.353516</ele><time>2007-07-07T13:31:13Z</time></trkpt>
<trkpt lat="46.79158042" lon="6.46600245"><ele>1324.834229</ele><time>2007-07-07T13:31:18Z</time></trkpt>
<trkpt lat="46.79165410" lon="6.46607939"><ele>1326.276123</ele><time>2007-07-07T13:31:23Z</time></trkpt>
<trkpt lat="46.79171428" lon="6.46621878"><ele>1328.19873</ele><time>2007-07-07T13:31:30Z</time></trkpt>
<trkpt lat="46.79176105" lon="6.46632196"><ele>1328.19873</ele><time>2007-07-07T13:31:35Z</time></trkpt>
<trkpt lat="46.79185015" lon="6.46651676"><ele>1328.679443</ele><time>2007-07-07T13:31:45Z</time></trkpt>
<trkpt lat="46.79196976" lon="6.46675254"><ele>1330.602051</ele><time>2007-07-07T13:31:57Z</time></trkpt>
<trkpt lat="46.79199784" lon="6.46681524"><ele>1332.043945</ele><time>2007-07-07T13:32:00Z</time></trkpt>
<trkpt lat="46.79210052" lon="6.46700006"><ele>1333.005127</ele><time>2007-07-07T13:32:09Z</time></trkpt>
<trkpt lat="46.79214008" lon="6.46710450"><ele>1333.48584</ele><time>2007-07-07T13:32:16Z</time></trkpt>
<trkpt lat="46.79219255" lon="6.46722662"><ele>1334.447266</ele><time>2007-07-07T13:32:23Z</time></trkpt>
<trkpt lat="46.79230738" lon="6.46734766"><ele>1334.927979</ele><time>2007-07-07T13:32:30Z</time></trkpt>
<trkpt lat="46.79236078" lon="6.46745344"><ele>1335.408447</ele><time>2007-07-07T13:32:35Z</time></trkpt>
<trkpt lat="46.79238777" lon="6.46753097"><ele>1336.369873</ele><time>2007-07-07T13:32:39Z</time></trkpt>
<trkpt lat="46.79243940" lon="6.46768989"><ele>1337.811768</ele><time>2007-07-07T13:32:47Z</time></trkpt>
<trkpt lat="46.79254903" lon="6.46783439"><ele>1336.369873</ele><time>2007-07-07T13:32:53Z</time></trkpt>
<trkpt lat="46.79263394" lon="6.46790807"><ele>1336.850342</ele><time>2007-07-07T13:32:55Z</time></trkpt>
<trkpt lat="46.79301264" lon="6.46823547"><ele>1335.88916</ele><time>2007-07-07T13:33:02Z</time></trkpt>
<trkpt lat="46.79336962" lon="6.46852205"><ele>1333.48584</ele><time>2007-07-07T13:33:08Z</time></trkpt>
<trkpt lat="46.79352863" lon="6.46862498"><ele>1332.043945</ele><time>2007-07-07T13:33:10Z</time></trkpt>
<trkpt lat="46.79366140" lon="6.46872229"><ele>1331.082764</ele><time>2007-07-07T13:33:12Z</time></trkpt>
<trkpt lat="46.79389617" lon="6.46889496"><ele>1331.082764</ele><time>2007-07-07T13:33:15Z</time></trkpt>
<trkpt lat="46.79431242" lon="6.46932654"><ele>1328.679443</ele><time>2007-07-07T13:33:20Z</time></trkpt>
<trkpt lat="46.79463479" lon="6.46972007"><ele>1325.79541</ele><time>2007-07-07T13:33:24Z</time></trkpt>
<trkpt lat="46.79533300" lon="6.47047218"><ele>1322.911377</ele><time>2007-07-07T13:33:32Z</time></trkpt>
<trkpt lat="46.79588327" lon="6.47101734"><ele>1320.508057</ele><time>2007-07-07T13:33:38Z</time></trkpt>
<trkpt lat="46.79651862" lon="6.47153157"><ele>1318.104736</ele><time>2007-07-07T13:33:45Z</time></trkpt>
<trkpt lat="46.79687058" lon="6.47180004"><ele>1315.70166</ele><time>2007-07-07T13:33:49Z</time></trkpt>
<trkpt lat="46.79723703" lon="6.47205309"><ele>1311.856445</ele><time>2007-07-07T13:33:53Z</time></trkpt>
<trkpt lat="46.79753912" lon="6.47222877"><ele>1308.972412</ele><time>2007-07-07T13:33:56Z</time></trkpt>
<trkpt lat="46.79775353" lon="6.47232760"><ele>1308.01123</ele><time>2007-07-07T13:33:58Z</time></trkpt>
<trkpt lat="46.79831922" lon="6.47255206"><ele>1304.64624</ele><time>2007-07-07T13:34:03Z</time></trkpt>
<trkpt lat="46.79855316" lon="6.47262935"><ele>1303.204346</ele><time>2007-07-07T13:34:05Z</time></trkpt>
<trkpt lat="46.79877084" lon="6.47269514"><ele>1300.320557</ele><time>2007-07-07T13:34:07Z</time></trkpt>
<trkpt lat="46.79897116" lon="6.47273605"><ele>1299.359131</ele><time>2007-07-07T13:34:09Z</time></trkpt>
<trkpt lat="46.79925757" lon="6.47276614"><ele>1297.436523</ele><time>2007-07-07T13:34:12Z</time></trkpt>
<trkpt lat="46.79954918" lon="6.47280126"><ele>1295.994629</ele><time>2007-07-07T13:34:16Z</time></trkpt>
<trkpt lat="46.79983333" lon="6.47284694"><ele>1294.55249</ele><time>2007-07-07T13:34:20Z</time></trkpt>
<trkpt lat="46.80006634" lon="6.47275616"><ele>1294.072021</ele><time>2007-07-07T13:34:24Z</time></trkpt>
<trkpt lat="46.80024505" lon="6.47254494"><ele>1289.265137</ele><time>2007-07-07T13:34:28Z</time></trkpt>
<trkpt lat="46.80029358" lon="6.47247906"><ele>1289.265137</ele><time>2007-07-07T13:34:29Z</time></trkpt>
<trkpt lat="46.80059927" lon="6.47209777"><ele>1285.900635</ele><time>2007-07-07T13:34:34Z</time></trkpt>
<trkpt lat="46.80067236" lon="6.47201923"><ele>1284.939453</ele><time>2007-07-07T13:34:35Z</time></trkpt>
<trkpt lat="46.80082340" lon="6.47189694"><ele>1283.497314</ele><time>2007-07-07T13:34:37Z</time></trkpt>
<trkpt lat="46.80096664" lon="6.47182996"><ele>1283.016602</ele><time>2007-07-07T13:34:39Z</time></trkpt>
<trkpt lat="46.80142463" lon="6.47176794"><ele>1280.613525</ele><time>2007-07-07T13:34:45Z</time></trkpt>
<trkpt lat="46.80168984" lon="6.47175218"><ele>1278.210205</ele><time>2007-07-07T13:34:48Z</time></trkpt>
<trkpt lat="46.80215679" lon="6.47174262"><ele>1274.845459</ele><time>2007-07-07T13:34:53Z</time></trkpt>
<trkpt lat="46.80234513" lon="6.47174346"><ele>1273.403564</ele><time>2007-07-07T13:34:55Z</time></trkpt>
<trkpt lat="46.80253507" lon="6.47174749"><ele>1271.961426</ele><time>2007-07-07T13:34:57Z</time></trkpt>
<trkpt lat="46.80308735" lon="6.47182745"><ele>1269.077637</ele><time>2007-07-07T13:35:03Z</time></trkpt>
<trkpt lat="46.80317176" lon="6.47185863"><ele>1269.077637</ele><time>2007-07-07T13:35:04Z</time></trkpt>
<trkpt lat="46.80353838" lon="6.47216692"><ele>1267.155029</ele><time>2007-07-07T13:35:09Z</time></trkpt>
<trkpt lat="46.80393049" lon="6.47269799"><ele>1263.790283</ele><time>2007-07-07T13:35:15Z</time></trkpt>
<trkpt lat="46.80414372" lon="6.47298968"><ele>1261.86792</ele><time>2007-07-07T13:35:18Z</time></trkpt>
<trkpt lat="46.80459995" lon="6.47364456"><ele>1260.425781</ele><time>2007-07-07T13:35:25Z</time></trkpt>
<trkpt lat="46.80503958" lon="6.47429148"><ele>1257.061035</ele><time>2007-07-07T13:35:32Z</time></trkpt>
<trkpt lat="46.80538609" lon="6.47477377"><ele>1253.696533</ele><time>2007-07-07T13:35:37Z</time></trkpt>
<trkpt lat="46.80545700" lon="6.47487427"><ele>1253.696533</ele><time>2007-07-07T13:35:38Z</time></trkpt>
<trkpt lat="46.80585296" lon="6.47554222"><ele>1251.773926</ele><time>2007-07-07T13:35:44Z</time></trkpt>
<trkpt lat="46.80622855" lon="6.47624714"><ele>1248.40918</ele><time>2007-07-07T13:35:50Z</time></trkpt>
<trkpt lat="46.80628840" lon="6.47635150"><ele>1248.40918</ele><time>2007-07-07T13:35:51Z</time></trkpt>
<trkpt lat="46.80644279" lon="6.47659323"><ele>1247.447998</ele><time>2007-07-07T13:35:54Z</time></trkpt>
<trkpt lat="46.80664639" lon="6.47684888"><ele>1246.486816</ele><time>2007-07-07T13:35:58Z</time></trkpt>
<trkpt lat="46.80692274" lon="6.47698006"><ele>1245.525391</ele><time>2007-07-07T13:36:02Z</time></trkpt>
<trkpt lat="46.80728995" lon="6.47700612"><ele>1244.563965</ele><time>2007-07-07T13:36:08Z</time></trkpt>
<trkpt lat="46.80746706" lon="6.47708265"><ele>1243.121826</ele><time>2007-07-07T13:36:13Z</time></trkpt>
<trkpt lat="46.80762347" lon="6.47722422"><ele>1242.641357</ele><time>2007-07-07T13:36:18Z</time></trkpt>
<trkpt lat="46.80784307" lon="6.47739152"><ele>1240.238037</ele><time>2007-07-07T13:36:23Z</time></trkpt>
<trkpt lat="46.80801842" lon="6.47755028"><ele>1239.757324</ele><time>2007-07-07T13:36:26Z</time></trkpt>
<trkpt lat="46.80821490" lon="6.47796032"><ele>1236.873291</ele><time>2007-07-07T13:36:30Z</time></trkpt>
<trkpt lat="46.80825974" lon="6.47819543"><ele>1233.989502</ele><time>2007-07-07T13:36:32Z</time></trkpt>
<trkpt lat="46.80830215" lon="6.47853004"><ele>1233.028076</ele><time>2007-07-07T13:36:35Z</time></trkpt>
<trkpt lat="46.80853073" lon="6.47921157"><ele>1231.105713</ele><time>2007-07-07T13:36:41Z</time></trkpt>
<trkpt lat="46.80864916" lon="6.47992353"><ele>1228.22168</ele><time>2007-07-07T13:36:47Z</time></trkpt>
<trkpt lat="46.80869820" lon="6.48017976"><ele>1227.260254</ele><time>2007-07-07T13:36:49Z</time></trkpt>
<trkpt lat="46.80873114" lon="6.48029812"><ele>1226.779541</ele><time>2007-07-07T13:36:50Z</time></trkpt>
<trkpt lat="46.80885678" lon="6.48058017"><ele>1224.376221</ele><time>2007-07-07T13:36:53Z</time></trkpt>
<trkpt lat="46.80906650" lon="6.48093724"><ele>1221.492188</ele><time>2007-07-07T13:36:57Z</time></trkpt>
<trkpt lat="46.80926892" lon="6.48140352"><ele>1218.608398</ele><time>2007-07-07T13:37:01Z</time></trkpt>
<trkpt lat="46.80944125" lon="6.48181616"><ele>1215.243896</ele><time>2007-07-07T13:37:04Z</time></trkpt>
<trkpt lat="46.80964443" lon="6.48224993"><ele>1211.398438</ele><time>2007-07-07T13:37:07Z</time></trkpt>
<trkpt lat="46.80986538" lon="6.48270247"><ele>1207.553223</ele><time>2007-07-07T13:37:10Z</time></trkpt>
<trkpt lat="46.81013653" lon="6.48325332"><ele>1205.630615</ele><time>2007-07-07T13:37:14Z</time></trkpt>
<trkpt lat="46.81036234" lon="6.48364476"><ele>1202.265869</ele><time>2007-07-07T13:37:17Z</time></trkpt>
<trkpt lat="46.81070767" lon="6.48407375"><ele>1198.901367</ele><time>2007-07-07T13:37:21Z</time></trkpt>
<trkpt lat="46.81111453" lon="6.48450214"><ele>1195.536621</ele><time>2007-07-07T13:37:26Z</time></trkpt>
<trkpt lat="46.81141586" lon="6.48486625"><ele>1191.691406</ele><time>2007-07-07T13:37:30Z</time></trkpt>
<trkpt lat="46.81173923" lon="6.48527864"><ele>1188.326904</ele><time>2007-07-07T13:37:34Z</time></trkpt>
<trkpt lat="46.81197636" lon="6.48554963"><ele>1184.481689</ele><time>2007-07-07T13:37:37Z</time></trkpt>
<trkpt lat="46.81204836" lon="6.48561954"><ele>1183.520264</ele><time>2007-07-07T13:37:38Z</time></trkpt>
<trkpt lat="46.81223603" lon="6.48586613"><ele>1181.117188</ele><time>2007-07-07T13:37:41Z</time></trkpt>
<trkpt lat="46.81257323" lon="6.48619529"><ele>1178.23291</ele><time>2007-07-07T13:37:46Z</time></trkpt>
<trkpt lat="46.81291756" lon="6.48650148"><ele>1174.387695</ele><time>2007-07-07T13:37:51Z</time></trkpt>
<trkpt lat="46.81324664" lon="6.48674992"><ele>1170.54248</ele><time>2007-07-07T13:37:55Z</time></trkpt>
<trkpt lat="46.81340354" lon="6.48686836"><ele>1169.581299</ele><time>2007-07-07T13:37:57Z</time></trkpt>
<trkpt lat="46.81354336" lon="6.48700448"><ele>1168.619873</ele><time>2007-07-07T13:37:59Z</time></trkpt>
<trkpt lat="46.81368928" lon="6.48714739"><ele>1166.216553</ele><time>2007-07-07T13:38:01Z</time></trkpt>
<trkpt lat="46.81398089" lon="6.48742676"><ele>1162.851807</ele><time>2007-07-07T13:38:05Z</time></trkpt>
<trkpt lat="46.81421466" lon="6.48762943"><ele>1159.006592</ele><time>2007-07-07T13:38:08Z</time></trkpt>
<trkpt lat="46.81439186" lon="6.48775239"><ele>1158.525879</ele><time>2007-07-07T13:38:10Z</time></trkpt>
<trkpt lat="46.81473535" lon="6.48798114"><ele>1155.64209</ele><time>2007-07-07T13:38:14Z</time></trkpt>
<trkpt lat="46.81510256" lon="6.48819010"><ele>1153.23877</ele><time>2007-07-07T13:38:18Z</time></trkpt>
<trkpt lat="46.81518612" lon="6.48824735"><ele>1153.23877</ele><time>2007-07-07T13:38:19Z</time></trkpt>
<trkpt lat="46.81543934" lon="6.48843259"><ele>1148.912842</ele><time>2007-07-07T13:38:22Z</time></trkpt>
<trkpt lat="46.81554127" lon="6.48849277"><ele>1148.912842</ele><time>2007-07-07T13:38:23Z</time></trkpt>
<trkpt lat="46.81592365" lon="6.48874096"><ele>1146.509521</ele><time>2007-07-07T13:38:27Z</time></trkpt>
<trkpt lat="46.81640267" lon="6.48906668"><ele>1142.183594</ele><time>2007-07-07T13:38:32Z</time></trkpt>
<trkpt lat="46.81666310" lon="6.48928595"><ele>1140.260986</ele><time>2007-07-07T13:38:35Z</time></trkpt>
<trkpt lat="46.81692076" lon="6.48957747"><ele>1138.338379</ele><time>2007-07-07T13:38:39Z</time></trkpt>
<trkpt lat="46.81715897" lon="6.48986598"><ele>1136.89624</ele><time>2007-07-07T13:38:44Z</time></trkpt>
<trkpt lat="46.81743993" lon="6.49013353"><ele>1135.454346</ele><time>2007-07-07T13:38:49Z</time></trkpt>
<trkpt lat="46.81764018" lon="6.49032539"><ele>1134.012451</ele><time>2007-07-07T13:38:54Z</time></trkpt>
<trkpt lat="46.81764194" lon="6.49033662"><ele>1134.012451</ele><time>2007-07-07T13:39:12Z</time></trkpt>
<trkpt lat="46.81775375" lon="6.49042714"><ele>1133.051025</ele><time>2007-07-07T13:39:17Z</time></trkpt>
<trkpt lat="46.81794813" lon="6.49056595"><ele>1132.570557</ele><time>2007-07-07T13:39:22Z</time></trkpt>
<trkpt lat="46.81814988" lon="6.49071322"><ele>1131.608887</ele><time>2007-07-07T13:39:26Z</time></trkpt>
<trkpt lat="46.81855054" lon="6.49102083"><ele>1130.647705</ele><time>2007-07-07T13:39:33Z</time></trkpt>
<trkpt lat="46.81886578" lon="6.49127346"><ele>1128.725098</ele><time>2007-07-07T13:39:38Z</time></trkpt>
<trkpt lat="46.81914196" lon="6.49157966"><ele>1127.763672</ele><time>2007-07-07T13:39:43Z</time></trkpt>
<trkpt lat="46.81924347" lon="6.49171863"><ele>1126.80249</ele><time>2007-07-07T13:39:45Z</time></trkpt>
<trkpt lat="46.81953759" lon="6.49217167"><ele>1125.360352</ele><time>2007-07-07T13:39:51Z</time></trkpt>
<trkpt lat="46.81997127" lon="6.49292244"><ele>1122.476563</ele><time>2007-07-07T13:40:00Z</time></trkpt>
<trkpt lat="46.82031744" lon="6.49357053"><ele>1121.99585</ele><time>2007-07-07T13:40:08Z</time></trkpt>
<trkpt lat="46.82059295" lon="6.49410613"><ele>1121.034668</ele><time>2007-07-07T13:40:15Z</time></trkpt>
<trkpt lat="46.82087752" lon="6.49469202"><ele>1120.553955</ele><time>2007-07-07T13:40:23Z</time></trkpt>
<trkpt lat="46.82111699" lon="6.49510793"><ele>1119.592773</ele><time>2007-07-07T13:40:29Z</time></trkpt>
<trkpt lat="46.82139519" lon="6.49544648"><ele>1119.112061</ele><time>2007-07-07T13:40:35Z</time></trkpt>
<trkpt lat="46.82175905" lon="6.49577924"><ele>1119.112061</ele><time>2007-07-07T13:40:42Z</time></trkpt>
<trkpt lat="46.82215635" lon="6.49604335"><ele>1118.150635</ele><time>2007-07-07T13:40:49Z</time></trkpt>
<trkpt lat="46.82221108" lon="6.49607956"><ele>1118.150635</ele><time>2007-07-07T13:40:50Z</time></trkpt>
<trkpt lat="46.82250135" lon="6.49647142"><ele>1117.669922</ele><time>2007-07-07T13:40:57Z</time></trkpt>
<trkpt lat="46.82278424" lon="6.49695522"><ele>1117.669922</ele><time>2007-07-07T13:41:05Z</time></trkpt>
<trkpt lat="46.82302052" lon="6.49733735"><ele>1117.669922</ele><time>2007-07-07T13:41:13Z</time></trkpt>
<trkpt lat="46.82311825" lon="6.49748915"><ele>1117.669922</ele><time>2007-07-07T13:41:17Z</time></trkpt>
<trkpt lat="46.82322194" lon="6.49769199"><ele>1117.189453</ele><time>2007-07-07T13:41:22Z</time></trkpt>
<trkpt lat="46.82340818" lon="6.49796792"><ele>1113.343994</ele><time>2007-07-07T13:41:27Z</time></trkpt>
<trkpt lat="46.82345504" lon="6.49803204"><ele>1113.824463</ele><time>2007-07-07T13:41:28Z</time></trkpt>
<trkpt lat="46.82350189" lon="6.49810153"><ele>1114.305176</ele><time>2007-07-07T13:41:29Z</time></trkpt>
<trkpt lat="46.82391822" lon="6.49860713"><ele>1111.421387</ele><time>2007-07-07T13:41:36Z</time></trkpt>
<trkpt lat="46.82397723" lon="6.49868223"><ele>1110.459961</ele><time>2007-07-07T13:41:37Z</time></trkpt>
<trkpt lat="46.82415267" lon="6.49903905"><ele>1108.537354</ele><time>2007-07-07T13:41:41Z</time></trkpt>
<trkpt lat="46.82417546" lon="6.49914223"><ele>1108.056885</ele><time>2007-07-07T13:41:42Z</time></trkpt>
<trkpt lat="46.82425736" lon="6.49969443"><ele>1105.653564</ele><time>2007-07-07T13:41:47Z</time></trkpt>
<trkpt lat="46.82430589" lon="6.50004496"><ele>1102.769531</ele><time>2007-07-07T13:41:50Z</time></trkpt>
<trkpt lat="46.82437873" lon="6.50063052"><ele>1100.846924</ele><time>2007-07-07T13:41:56Z</time></trkpt>
<trkpt lat="46.82440513" lon="6.50084124"><ele>1098.443359</ele><time>2007-07-07T13:42:00Z</time></trkpt>
<trkpt lat="46.82430773" lon="6.50105732"><ele>1097.962891</ele><time>2007-07-07T13:42:04Z</time></trkpt>
<trkpt lat="46.82406256" lon="6.50117408"><ele>1097.001465</ele><time>2007-07-07T13:42:08Z</time></trkpt>
<trkpt lat="46.82367188" lon="6.50124273"><ele>1097.001465</ele><time>2007-07-07T13:42:13Z</time></trkpt>
<trkpt lat="46.82351262" lon="6.50109504"><ele>1096.040283</ele><time>2007-07-07T13:42:17Z</time></trkpt>
<trkpt lat="46.82328145" lon="6.50091785"><ele>1093.15625</ele><time>2007-07-07T13:42:20Z</time></trkpt>
<trkpt lat="46.82319093" lon="6.50088508"><ele>1093.15625</ele><time>2007-07-07T13:42:21Z</time></trkpt>
<trkpt lat="46.82292522" lon="6.50081199"><ele>1091.714355</ele><time>2007-07-07T13:42:24Z</time></trkpt>
<trkpt lat="46.82275314" lon="6.50076622"><ele>1090.272461</ele><time>2007-07-07T13:42:26Z</time></trkpt>
<trkpt lat="46.82260553" lon="6.50072934"><ele>1089.791748</ele><time>2007-07-07T13:42:28Z</time></trkpt>
<trkpt lat="46.82245248" lon="6.50066664"><ele>1089.311035</ele><time>2007-07-07T13:42:31Z</time></trkpt>
<trkpt lat="46.82225852" lon="6.50064468"><ele>1088.349854</ele><time>2007-07-07T13:42:35Z</time></trkpt>
<trkpt lat="46.82194680" lon="6.50055349"><ele>1087.388428</ele><time>2007-07-07T13:42:40Z</time></trkpt>
<trkpt lat="46.82135998" lon="6.50032634"><ele>1084.985352</ele><time>2007-07-07T13:42:48Z</time></trkpt>
<trkpt lat="46.82128790" lon="6.50029273"><ele>1084.504639</ele><time>2007-07-07T13:42:49Z</time></trkpt>
<trkpt lat="46.82109168" lon="6.50017563"><ele>1083.542969</ele><time>2007-07-07T13:42:52Z</time></trkpt>
<trkpt lat="46.82076126" lon="6.50001805"><ele>1083.062256</ele><time>2007-07-07T13:42:57Z</time></trkpt>
<trkpt lat="46.82061768" lon="6.49997455"><ele>1081.620361</ele><time>2007-07-07T13:42:59Z</time></trkpt>
<trkpt lat="46.82015953" lon="6.49997489"><ele>1081.139893</ele><time>2007-07-07T13:43:05Z</time></trkpt>
<trkpt lat="46.81986297" lon="6.50011143"><ele>1080.178467</ele><time>2007-07-07T13:43:09Z</time></trkpt>
<trkpt lat="46.81970623" lon="6.50035769"><ele>1079.697754</ele><time>2007-07-07T13:43:12Z</time></trkpt>
<trkpt lat="46.81967296" lon="6.50045182"><ele>1079.697754</ele><time>2007-07-07T13:43:13Z</time></trkpt>
<trkpt lat="46.81949995" lon="6.50100376"><ele>1079.697754</ele><time>2007-07-07T13:43:19Z</time></trkpt>
<trkpt lat="46.81943734" lon="6.50143652"><ele>1080.65918</ele><time>2007-07-07T13:43:24Z</time></trkpt>
<trkpt lat="46.81943089" lon="6.50151062"><ele>1080.65918</ele><time>2007-07-07T13:43:25Z</time></trkpt>
<trkpt lat="46.81932469" lon="6.50167264"><ele>1080.65918</ele><time>2007-07-07T13:43:29Z</time></trkpt>
<trkpt lat="46.81917122" lon="6.50162176"><ele>1080.178467</ele><time>2007-07-07T13:43:32Z</time></trkpt>
<trkpt lat="46.81873703" lon="6.50143024"><ele>1077.775146</ele><time>2007-07-07T13:43:39Z</time></trkpt>
<trkpt lat="46.81866495" lon="6.50140098"><ele>1077.294678</ele><time>2007-07-07T13:43:40Z</time></trkpt>
<trkpt lat="46.81835096" lon="6.50127718"><ele>1075.371826</ele><time>2007-07-07T13:43:44Z</time></trkpt>
<trkpt lat="46.81799624" lon="6.50112337"><ele>1072.488037</ele><time>2007-07-07T13:43:48Z</time></trkpt>
<trkpt lat="46.81790312" lon="6.50107669"><ele>1072.007324</ele><time>2007-07-07T13:43:49Z</time></trkpt>
<trkpt lat="46.81771855" lon="6.50097527"><ele>1069.123535</ele><time>2007-07-07T13:43:51Z</time></trkpt>
<trkpt lat="46.81762417" lon="6.50092196"><ele>1069.123535</ele><time>2007-07-07T13:43:52Z</time></trkpt>
<trkpt lat="46.81743323" lon="6.50081123"><ele>1067.681152</ele><time>2007-07-07T13:43:54Z</time></trkpt>
<trkpt lat="46.81709217" lon="6.50062356"><ele>1066.239258</ele><time>2007-07-07T13:43:58Z</time></trkpt>
<trkpt lat="46.81672328" lon="6.50034939"><ele>1063.835938</ele><time>2007-07-07T13:44:02Z</time></trkpt>
<trkpt lat="46.81642120" lon="6.50011637"><ele>1062.874756</ele><time>2007-07-07T13:44:06Z</time></trkpt>
<trkpt lat="46.81630192" lon="6.50002384"><ele>1061.432861</ele><time>2007-07-07T13:44:08Z</time></trkpt>
<trkpt lat="46.81606413" lon="6.49986475"><ele>1059.510254</ele><time>2007-07-07T13:44:13Z</time></trkpt>
<trkpt lat="46.81603286" lon="6.49984765"><ele>1059.029541</ele><time>2007-07-07T13:44:14Z</time></trkpt>
<trkpt lat="46.81595516" lon="6.49999157"><ele>1058.548828</ele><time>2007-07-07T13:44:18Z</time></trkpt>
<trkpt lat="46.81595919" lon="6.50006675"><ele>1058.548828</ele><time>2007-07-07T13:44:19Z</time></trkpt>
<trkpt lat="46.81602297" lon="6.50059573"><ele>1057.106934</ele><time>2007-07-07T13:44:25Z</time></trkpt>
<trkpt lat="46.81611182" lon="6.50133435"><ele>1055.184326</ele><time>2007-07-07T13:44:33Z</time></trkpt>
<trkpt lat="46.81618726" lon="6.50202996"><ele>1054.703613</ele><time>2007-07-07T13:44:41Z</time></trkpt>
<trkpt lat="46.81622288" lon="6.50246465"><ele>1055.184326</ele><time>2007-07-07T13:44:46Z</time></trkpt>
<trkpt lat="46.81623093" lon="6.50254662"><ele>1055.184326</ele><time>2007-07-07T13:44:47Z</time></trkpt>
<trkpt lat="46.81630184" lon="6.50290939"><ele>1055.665039</ele><time>2007-07-07T13:44:52Z</time></trkpt>
<trkpt lat="46.81633956" lon="6.50329487"><ele>1056.626221</ele><time>2007-07-07T13:44:59Z</time></trkpt>
<trkpt lat="46.81634517" lon="6.50360283"><ele>1057.587646</ele><time>2007-07-07T13:45:06Z</time></trkpt>
<trkpt lat="46.81632824" lon="6.50404070"><ele>1058.548828</ele><time>2007-07-07T13:45:16Z</time></trkpt>
<trkpt lat="46.81626613" lon="6.50440254"><ele>1058.068359</ele><time>2007-07-07T13:45:24Z</time></trkpt>
<trkpt lat="46.81616555" lon="6.50485944"><ele>1058.068359</ele><time>2007-07-07T13:45:33Z</time></trkpt>
<trkpt lat="46.81607008" lon="6.50521156"><ele>1057.587646</ele><time>2007-07-07T13:45:38Z</time></trkpt>
<trkpt lat="46.81590789" lon="6.50560870"><ele>1057.106934</ele><time>2007-07-07T13:45:44Z</time></trkpt>
<trkpt lat="46.81566959" lon="6.50605009"><ele>1056.626221</ele><time>2007-07-07T13:45:51Z</time></trkpt>
<trkpt lat="46.81537773" lon="6.50647170"><ele>1056.145508</ele><time>2007-07-07T13:45:58Z</time></trkpt>
<trkpt lat="46.81529777" lon="6.50657924"><ele>1056.145508</ele><time>2007-07-07T13:46:00Z</time></trkpt>
<trkpt lat="46.81522887" lon="6.50674067"><ele>1056.145508</ele><time>2007-07-07T13:46:03Z</time></trkpt>
<trkpt lat="46.81506769" lon="6.50700387"><ele>1057.106934</ele><time>2007-07-07T13:46:09Z</time></trkpt>
<trkpt lat="46.81475873" lon="6.50730503"><ele>1057.587646</ele><time>2007-07-07T13:46:18Z</time></trkpt>
<trkpt lat="46.81472654" lon="6.50734560"><ele>1057.587646</ele><time>2007-07-07T13:46:19Z</time></trkpt>
<trkpt lat="46.81462353" lon="6.50753679"><ele>1057.587646</ele><time>2007-07-07T13:46:23Z</time></trkpt>
<trkpt lat="46.81455706" lon="6.50775195"><ele>1057.106934</ele><time>2007-07-07T13:46:27Z</time></trkpt>
<trkpt lat="46.81454499" lon="6.50798539"><ele>1057.587646</ele><time>2007-07-07T13:46:31Z</time></trkpt>
<trkpt lat="46.81460023" lon="6.50847967"><ele>1059.029541</ele><time>2007-07-07T13:46:40Z</time></trkpt>
<trkpt lat="46.81472076" lon="6.50883565"><ele>1059.510254</ele><time>2007-07-07T13:46:47Z</time></trkpt>
<trkpt lat="46.81489016" lon="6.50925256"><ele>1059.990723</ele><time>2007-07-07T13:46:55Z</time></trkpt>
<trkpt lat="46.81513784" lon="6.50972388"><ele>1059.029541</ele><time>2007-07-07T13:47:05Z</time></trkpt>
<trkpt lat="46.81536273" lon="6.51009067"><ele>1058.548828</ele><time>2007-07-07T13:47:13Z</time></trkpt>
<trkpt lat="46.81538687" lon="6.51012822"><ele>1058.068359</ele><time>2007-07-07T13:47:27Z</time></trkpt>
<trkpt lat="46.81546910" lon="6.51020634"><ele>1058.068359</ele><time>2007-07-07T13:47:32Z</time></trkpt>
<trkpt lat="46.81566800" lon="6.51040172"><ele>1056.626221</ele><time>2007-07-07T13:47:38Z</time></trkpt>
<trkpt lat="46.81579415" lon="6.51051697"><ele>1055.665039</ele><time>2007-07-07T13:47:43Z</time></trkpt>
<trkpt lat="46.81596950" lon="6.51069274"><ele>1054.223145</ele><time>2007-07-07T13:47:49Z</time></trkpt>
<trkpt lat="46.81626580" lon="6.51099239"><ele>1052.781006</ele><time>2007-07-07T13:47:56Z</time></trkpt>
<trkpt lat="46.81647115" lon="6.51119247"><ele>1053.261719</ele><time>2007-07-07T13:48:02Z</time></trkpt>
<trkpt lat="46.81649303" lon="6.51118484"><ele>1052.781006</ele><time>2007-07-07T13:48:14Z</time></trkpt>
<trkpt lat="46.81637686" lon="6.51108376"><ele>1053.742432</ele><time>2007-07-07T13:48:21Z</time></trkpt>
<trkpt lat="46.81615558" lon="6.51086566"><ele>1054.223145</ele><time>2007-07-07T13:48:29Z</time></trkpt>
<trkpt lat="46.81597302" lon="6.51066952"><ele>1054.703613</ele><time>2007-07-07T13:48:36Z</time></trkpt>
<trkpt lat="46.81580697" lon="6.51050197"><ele>1054.703613</ele><time>2007-07-07T13:48:44Z</time></trkpt>
<trkpt lat="46.81557907" lon="6.51028119"><ele>1057.106934</ele><time>2007-07-07T13:48:55Z</time></trkpt>
<trkpt lat="46.81538385" lon="6.51008958"><ele>1058.548828</ele><time>2007-07-07T13:49:04Z</time></trkpt>
<trkpt lat="46.81522795" lon="6.50987718"><ele>1058.548828</ele><time>2007-07-07T13:49:11Z</time></trkpt>
<trkpt lat="46.81505738" lon="6.50955356"><ele>1059.029541</ele><time>2007-07-07T13:49:20Z</time></trkpt>
<trkpt lat="46.81490256" lon="6.50925952"><ele>1059.510254</ele><time>2007-07-07T13:49:28Z</time></trkpt>
<trkpt lat="46.81474188" lon="6.50886683"><ele>1059.029541</ele><time>2007-07-07T13:49:37Z</time></trkpt>
<trkpt lat="46.81464843" lon="6.50862208"><ele>1059.029541</ele><time>2007-07-07T13:49:43Z</time></trkpt>
<trkpt lat="46.81459587" lon="6.50843667"><ele>1058.068359</ele><time>2007-07-07T13:49:49Z</time></trkpt>
<trkpt lat="46.81456729" lon="6.50825118"><ele>1058.548828</ele><time>2007-07-07T13:49:54Z</time></trkpt>
<trkpt lat="46.81453678" lon="6.50791422"><ele>1058.548828</ele><time>2007-07-07T13:50:00Z</time></trkpt>
<trkpt lat="46.81452320" lon="6.50781825"><ele>1058.068359</ele><time>2007-07-07T13:50:02Z</time></trkpt>
<trkpt lat="46.81441524" lon="6.50779202"><ele>1056.626221</ele><time>2007-07-07T13:50:06Z</time></trkpt>
<trkpt lat="46.81437719" lon="6.50781306"><ele>1057.106934</ele><time>2007-07-07T13:50:07Z</time></trkpt>
<trkpt lat="46.81399665" lon="6.50802445"><ele>1054.703613</ele><time>2007-07-07T13:50:15Z</time></trkpt>
<trkpt lat="46.81372792" lon="6.50817582"><ele>1053.742432</ele><time>2007-07-07T13:50:21Z</time></trkpt>
<trkpt lat="46.81360672" lon="6.50833139"><ele>1053.742432</ele><time>2007-07-07T13:50:26Z</time></trkpt>
<trkpt lat="46.81359834" lon="6.50838613"><ele>1054.223145</ele><time>2007-07-07T13:50:27Z</time></trkpt>
<trkpt lat="46.81364570" lon="6.50870564"><ele>1052.300293</ele><time>2007-07-07T13:50:32Z</time></trkpt>
<trkpt lat="46.81373262" lon="6.50909389"><ele>1048.935547</ele><time>2007-07-07T13:50:37Z</time></trkpt>
<trkpt lat="46.81383077" lon="6.50953939"><ele>1046.051758</ele><time>2007-07-07T13:50:43Z</time></trkpt>
<trkpt lat="46.81386690" lon="6.50970376"><ele>1044.609619</ele><time>2007-07-07T13:50:45Z</time></trkpt>
<trkpt lat="46.81398659" lon="6.51026317"><ele>1041.245117</ele><time>2007-07-07T13:50:51Z</time></trkpt>
<trkpt lat="46.81402934" lon="6.51046584"><ele>1040.764404</ele><time>2007-07-07T13:50:53Z</time></trkpt>
<trkpt lat="46.81408994" lon="6.51074655"><ele>1037.399902</ele><time>2007-07-07T13:50:56Z</time></trkpt>
<trkpt lat="46.81410788" lon="6.51082962"><ele>1037.399902</ele><time>2007-07-07T13:50:57Z</time></trkpt>
<trkpt lat="46.81422262" lon="6.51134125"><ele>1033.554443</ele><time>2007-07-07T13:51:03Z</time></trkpt>
<trkpt lat="46.81424769" lon="6.51145893"><ele>1032.593262</ele><time>2007-07-07T13:51:05Z</time></trkpt>
<trkpt lat="46.81431550" lon="6.51177803"><ele>1030.189941</ele><time>2007-07-07T13:51:11Z</time></trkpt>
<trkpt lat="46.81432229" lon="6.51185699"><ele>1029.709229</ele><time>2007-07-07T13:51:19Z</time></trkpt>
<trkpt lat="46.81423143" lon="6.51196604"><ele>1028.748047</ele><time>2007-07-07T13:51:23Z</time></trkpt>
<trkpt lat="46.81414023" lon="6.51210702"><ele>1028.748047</ele><time>2007-07-07T13:51:29Z</time></trkpt>
<trkpt lat="46.81416244" lon="6.51227474"><ele>1026.825439</ele><time>2007-07-07T13:51:35Z</time></trkpt>
<trkpt lat="46.81417032" lon="6.51231112"><ele>1026.344727</ele><time>2007-07-07T13:51:36Z</time></trkpt>
<trkpt lat="46.81421936" lon="6.51246786"><ele>1024.902832</ele><time>2007-07-07T13:51:40Z</time></trkpt>
<trkpt lat="46.81427493" lon="6.51267313"><ele>1022.499512</ele><time>2007-07-07T13:51:46Z</time></trkpt>
<trkpt lat="46.81431147" lon="6.51281965"><ele>1021.057617</ele><time>2007-07-07T13:51:50Z</time></trkpt>
<trkpt lat="46.81439118" lon="6.51310799"><ele>1018.17334</ele><time>2007-07-07T13:51:57Z</time></trkpt>
<trkpt lat="46.81442798" lon="6.51326129"><ele>1016.250732</ele><time>2007-07-07T13:52:00Z</time></trkpt>
<trkpt lat="46.81448255" lon="6.51346095"><ele>1013.366943</ele><time>2007-07-07T13:52:04Z</time></trkpt>
<trkpt lat="46.81456125" lon="6.51373504"><ele>1010.002197</ele><time>2007-07-07T13:52:09Z</time></trkpt>
<trkpt lat="46.81457626" lon="6.51378600"><ele>1010.002197</ele><time>2007-07-07T13:52:10Z</time></trkpt>
<trkpt lat="46.81466184" lon="6.51401776"><ele>1007.118408</ele><time>2007-07-07T13:52:16Z</time></trkpt>
<trkpt lat="46.81480617" lon="6.51420736"><ele>1003.753662</ele><time>2007-07-07T13:52:22Z</time></trkpt>
<trkpt lat="46.81496928" lon="6.51442235"><ele>999.908447</ele><time>2007-07-07T13:52:27Z</time></trkpt>
<trkpt lat="46.81509510" lon="6.51457868"><ele>996.543945</ele><time>2007-07-07T13:52:32Z</time></trkpt>
<trkpt lat="46.81521144" lon="6.51474824"><ele>994.621094</ele><time>2007-07-07T13:52:38Z</time></trkpt>
<trkpt lat="46.81531755" lon="6.51492518"><ele>992.69873</ele><time>2007-07-07T13:52:44Z</time></trkpt>
<trkpt lat="46.81537027" lon="6.51500263"><ele>991.256592</ele><time>2007-07-07T13:52:46Z</time></trkpt>
<trkpt lat="46.81549944" lon="6.51518393"><ele>988.372803</ele><time>2007-07-07T13:52:50Z</time></trkpt>
<trkpt lat="46.81560908" lon="6.51533145"><ele>986.93042</ele><time>2007-07-07T13:52:54Z</time></trkpt>
<trkpt lat="46.81581276" lon="6.51560144"><ele>985.969238</ele><time>2007-07-07T13:53:02Z</time></trkpt>
<trkpt lat="46.81593672" lon="6.51585348"><ele>983.565918</ele><time>2007-07-07T13:53:08Z</time></trkpt>
<trkpt lat="46.81600872" lon="6.51609153"><ele>982.604736</ele><time>2007-07-07T13:53:13Z</time></trkpt>
<trkpt lat="46.81616169" lon="6.51663476"><ele>980.682129</ele><time>2007-07-07T13:53:22Z</time></trkpt>
<trkpt lat="46.81631735" lon="6.51718059"><ele>978.759521</ele><time>2007-07-07T13:53:31Z</time></trkpt>
<trkpt lat="46.81644366" lon="6.51767336"><ele>975.875488</ele><time>2007-07-07T13:53:39Z</time></trkpt>
<trkpt lat="46.81652522" lon="6.51794015"><ele>975.394775</ele><time>2007-07-07T13:53:45Z</time></trkpt>
<trkpt lat="46.81655154" lon="6.51800763"><ele>974.433594</ele><time>2007-07-07T13:53:47Z</time></trkpt>
<trkpt lat="46.81661013" lon="6.51816940"><ele>972.030273</ele><time>2007-07-07T13:53:52Z</time></trkpt>
<trkpt lat="46.81672043" lon="6.51846277"><ele>971.068848</ele><time>2007-07-07T13:53:59Z</time></trkpt>
<trkpt lat="46.81682956" lon="6.51874649"><ele>968.665527</ele><time>2007-07-07T13:54:06Z</time></trkpt>
<trkpt lat="46.81696577" lon="6.51912318"><ele>967.223633</ele><time>2007-07-07T13:54:13Z</time></trkpt>
<trkpt lat="46.81702562" lon="6.51929777"><ele>966.262207</ele><time>2007-07-07T13:54:18Z</time></trkpt>
<trkpt lat="46.81708957" lon="6.51947069"><ele>964.820313</ele><time>2007-07-07T13:54:24Z</time></trkpt>
<trkpt lat="46.81717959" lon="6.51966515"><ele>963.378418</ele><time>2007-07-07T13:54:30Z</time></trkpt>
<trkpt lat="46.81732183" lon="6.51975534"><ele>962.897705</ele><time>2007-07-07T13:54:35Z</time></trkpt>
<trkpt lat="46.81750372" lon="6.51971930"><ele>960.013672</ele><time>2007-07-07T13:54:41Z</time></trkpt>
<trkpt lat="46.81757254" lon="6.51971737"><ele>959.05249</ele><time>2007-07-07T13:54:43Z</time></trkpt>
<trkpt lat="46.81775467" lon="6.51975425"><ele>957.129883</ele><time>2007-07-07T13:54:48Z</time></trkpt>
<trkpt lat="46.81796623" lon="6.51980773"><ele>953.765137</ele><time>2007-07-07T13:54:54Z</time></trkpt>
<trkpt lat="46.81814116" lon="6.51975919"><ele>952.322998</ele><time>2007-07-07T13:54:59Z</time></trkpt>
<trkpt lat="46.81817234" lon="6.51975978"><ele>952.322998</ele><time>2007-07-07T13:55:00Z</time></trkpt>
<trkpt lat="46.81826228" lon="6.51991627"><ele>951.842529</ele><time>2007-07-07T13:55:05Z</time></trkpt>
<trkpt lat="46.81826262" lon="6.51996623"><ele>952.322998</ele><time>2007-07-07T13:55:06Z</time></trkpt>
<trkpt lat="46.81827519" lon="6.52017368"><ele>952.803711</ele><time>2007-07-07T13:55:12Z</time></trkpt>
<trkpt lat="46.81829799" lon="6.52026747"><ele>953.284424</ele><time>2007-07-07T13:55:16Z</time></trkpt>
<trkpt lat="46.81830972" lon="6.52038013"><ele>954.726318</ele><time>2007-07-07T13:55:22Z</time></trkpt>
<trkpt lat="46.81831609" lon="6.52044123"><ele>954.24585</ele><time>2007-07-07T13:55:25Z</time></trkpt>
<trkpt lat="46.81831576" lon="6.52056637"><ele>954.24585</ele><time>2007-07-07T13:55:29Z</time></trkpt>
<trkpt lat="46.81828877" lon="6.52072144"><ele>953.284424</ele><time>2007-07-07T13:55:40Z</time></trkpt>
<trkpt lat="46.81827444" lon="6.52082009"><ele>952.803711</ele><time>2007-07-07T13:55:42Z</time></trkpt>
<trkpt lat="46.81825524" lon="6.52097633"><ele>951.842529</ele><time>2007-07-07T13:55:44Z</time></trkpt>
<trkpt lat="46.81824896" lon="6.52138403"><ele>949.919922</ele><time>2007-07-07T13:55:48Z</time></trkpt>
<trkpt lat="46.81825792" lon="6.52149417"><ele>948.958496</ele><time>2007-07-07T13:55:49Z</time></trkpt>
<trkpt lat="46.81827569" lon="6.52181452"><ele>948.477783</ele><time>2007-07-07T13:55:53Z</time></trkpt>
<trkpt lat="46.81829715" lon="6.52189239"><ele>948.477783</ele><time>2007-07-07T13:56:00Z</time></trkpt>
<trkpt lat="46.81830453" lon="6.52201627"><ele>947.997314</ele><time>2007-07-07T13:56:05Z</time></trkpt>
<trkpt lat="46.81836538" lon="6.52220772"><ele>947.997314</ele><time>2007-07-07T13:56:09Z</time></trkpt>
<trkpt lat="46.81838290" lon="6.52225038"><ele>947.997314</ele><time>2007-07-07T13:56:10Z</time></trkpt>
<trkpt lat="46.81844383" lon="6.52248717"><ele>947.516602</ele><time>2007-07-07T13:56:14Z</time></trkpt>
<trkpt lat="46.81850494" lon="6.52268473"><ele>946.55542</ele><time>2007-07-07T13:56:17Z</time></trkpt>
<trkpt lat="46.81869336" lon="6.52319963"><ele>946.55542</ele><time>2007-07-07T13:56:25Z</time></trkpt>
<trkpt lat="46.81878774" lon="6.52354555"><ele>946.55542</ele><time>2007-07-07T13:56:31Z</time></trkpt>
<trkpt lat="46.81886494" lon="6.52400312"><ele>946.55542</ele><time>2007-07-07T13:56:39Z</time></trkpt>
<trkpt lat="46.81892185" lon="6.52426648"><ele>946.55542</ele><time>2007-07-07T13:56:44Z</time></trkpt>
<trkpt lat="46.81886829" lon="6.52439254"><ele>946.55542</ele><time>2007-07-07T13:56:48Z</time></trkpt>
<trkpt lat="46.81877308" lon="6.52432557"><ele>946.074707</ele><time>2007-07-07T13:56:51Z</time></trkpt>
<trkpt lat="46.81874265" lon="6.52427218"><ele>945.593994</ele><time>2007-07-07T13:56:52Z</time></trkpt>
<trkpt lat="46.81847862" lon="6.52386515"><ele>942.229492</ele><time>2007-07-07T13:56:58Z</time></trkpt>
<trkpt lat="46.81823839" lon="6.52346140"><ele>939.345215</ele><time>2007-07-07T13:57:03Z</time></trkpt>
<trkpt lat="46.81796649" lon="6.52302889"><ele>935.980713</ele><time>2007-07-07T13:57:08Z</time></trkpt>
<trkpt lat="46.81791443" lon="6.52294499"><ele>935.980713</ele><time>2007-07-07T13:57:09Z</time></trkpt>
<trkpt lat="46.81779248" lon="6.52271306"><ele>932.616211</ele><time>2007-07-07T13:57:12Z</time></trkpt>
<trkpt lat="46.81767287" lon="6.52240637"><ele>930.212891</ele><time>2007-07-07T13:57:16Z</time></trkpt>
<trkpt lat="46.81764906" lon="6.52234476"><ele>930.212891</ele><time>2007-07-07T13:57:17Z</time></trkpt>
<trkpt lat="46.81753322" lon="6.52225784"><ele>928.770996</ele><time>2007-07-07T13:57:21Z</time></trkpt>
<trkpt lat="46.81746894" lon="6.52239916"><ele>926.367676</ele><time>2007-07-07T13:57:24Z</time></trkpt>
<trkpt lat="46.81740163" lon="6.52263570"><ele>924.925781</ele><time>2007-07-07T13:57:27Z</time></trkpt>
<trkpt lat="46.81727062" lon="6.52296896"><ele>922.522217</ele><time>2007-07-07T13:57:31Z</time></trkpt>
<trkpt lat="46.81722184" lon="6.52334305"><ele>920.599609</ele><time>2007-07-07T13:57:36Z</time></trkpt>
<trkpt lat="46.81724078" lon="6.52378259"><ele>917.235107</ele><time>2007-07-07T13:57:40Z</time></trkpt>
<trkpt lat="46.81724782" lon="6.52400354"><ele>916.273682</ele><time>2007-07-07T13:57:42Z</time></trkpt>
<trkpt lat="46.81734027" lon="6.52447217"><ele>910.986572</ele><time>2007-07-07T13:57:47Z</time></trkpt>
<trkpt lat="46.81737204" lon="6.52464543"><ele>909.063965</ele><time>2007-07-07T13:57:49Z</time></trkpt>
<trkpt lat="46.81738889" lon="6.52480535"><ele>907.621826</ele><time>2007-07-07T13:57:51Z</time></trkpt>
<trkpt lat="46.81739459" lon="6.52504239"><ele>906.6604</ele><time>2007-07-07T13:57:54Z</time></trkpt>
<trkpt lat="46.81745477" lon="6.52535822"><ele>904.257324</ele><time>2007-07-07T13:57:59Z</time></trkpt>
<trkpt lat="46.81747288" lon="6.52545587"><ele>903.776611</ele><time>2007-07-07T13:58:01Z</time></trkpt>
<trkpt lat="46.81746474" lon="6.52554128"><ele>902.815186</ele><time>2007-07-07T13:58:03Z</time></trkpt>
<trkpt lat="46.81747598" lon="6.52569668"><ele>900.892578</ele><time>2007-07-07T13:58:16Z</time></trkpt>
<trkpt lat="46.81751085" lon="6.52591017"><ele>898.489258</ele><time>2007-07-07T13:58:21Z</time></trkpt>
<trkpt lat="46.81749634" lon="6.52608116"><ele>895.124756</ele><time>2007-07-07T13:58:25Z</time></trkpt>
<trkpt lat="46.81749249" lon="6.52610186"><ele>895.124756</ele><time>2007-07-07T13:58:26Z</time></trkpt>
<trkpt lat="46.81739006" lon="6.52629389"><ele>892.72168</ele><time>2007-07-07T13:58:47Z</time></trkpt>
<trkpt lat="46.81729702" lon="6.52634402"><ele>890.798584</ele><time>2007-07-07T13:58:53Z</time></trkpt>
<trkpt lat="46.81726207" lon="6.52639054"><ele>889.837402</ele><time>2007-07-07T13:58:55Z</time></trkpt>
<trkpt lat="46.81712394" lon="6.52655910"><ele>887.434082</ele><time>2007-07-07T13:59:40Z</time></trkpt>
<trkpt lat="46.81712519" lon="6.52660629"><ele>886.4729</ele><time>2007-07-07T13:59:43Z</time></trkpt>
<trkpt lat="46.81711229" lon="6.52665700"><ele>885.031006</ele><time>2007-07-07T13:59:45Z</time></trkpt>
<trkpt lat="46.81709393" lon="6.52668315"><ele>885.031006</ele><time>2007-07-07T13:59:46Z</time></trkpt>
<trkpt lat="46.81700014" lon="6.52681508"><ele>883.588867</ele><time>2007-07-07T13:59:50Z</time></trkpt>
<trkpt lat="46.81695823" lon="6.52686998"><ele>883.108154</ele><time>2007-07-07T13:59:52Z</time></trkpt>
<trkpt lat="46.81684406" lon="6.52707232"><ele>879.743652</ele><time>2007-07-07T14:00:03Z</time></trkpt>
<trkpt lat="46.81679629" lon="6.52716293"><ele>877.821045</ele><time>2007-07-07T14:00:05Z</time></trkpt>
<trkpt lat="46.81676997" lon="6.52721012"><ele>876.859863</ele><time>2007-07-07T14:00:06Z</time></trkpt>
<trkpt lat="46.81668187" lon="6.52737365"><ele>875.898193</ele><time>2007-07-07T14:00:10Z</time></trkpt>
<trkpt lat="46.81658288" lon="6.52755889"><ele>873.975586</ele><time>2007-07-07T14:00:15Z</time></trkpt>
<trkpt lat="46.81653838" lon="6.52769744"><ele>873.975586</ele><time>2007-07-07T14:00:19Z</time></trkpt>
<trkpt lat="46.81652170" lon="6.52774782"><ele>872.533691</ele><time>2007-07-07T14:00:22Z</time></trkpt>
<trkpt lat="46.81650493" lon="6.52776819"><ele>872.052979</ele><time>2007-07-07T14:00:23Z</time></trkpt>
<trkpt lat="46.81636697" lon="6.52783499"><ele>870.611084</ele><time>2007-07-07T14:00:27Z</time></trkpt>
<trkpt lat="46.81627552" lon="6.52794655"><ele>869.649902</ele><time>2007-07-07T14:00:30Z</time></trkpt>
<trkpt lat="46.81627644" lon="6.52820094"><ele>868.688477</ele><time>2007-07-07T14:00:35Z</time></trkpt>
<trkpt lat="46.81629430" lon="6.52848610"><ele>867.246582</ele><time>2007-07-07T14:00:41Z</time></trkpt>
<trkpt lat="46.81629446" lon="6.52852884"><ele>867.246582</ele><time>2007-07-07T14:00:42Z</time></trkpt>
<trkpt lat="46.81623193" lon="6.52873035"><ele>865.804688</ele><time>2007-07-07T14:00:47Z</time></trkpt>
<trkpt lat="46.81614803" lon="6.52892028"><ele>864.362549</ele><time>2007-07-07T14:00:52Z</time></trkpt>
<trkpt lat="46.81606228" lon="6.52905028"><ele>862.920654</ele><time>2007-07-07T14:00:58Z</time></trkpt>
<trkpt lat="46.81598576" lon="6.52914190"><ele>861.47876</ele><time>2007-07-07T14:01:02Z</time></trkpt>
<trkpt lat="46.81594536" lon="6.52936578"><ele>859.555908</ele><time>2007-07-07T14:01:07Z</time></trkpt>
<trkpt lat="46.81587009" lon="6.52954817"><ele>855.710693</ele><time>2007-07-07T14:01:13Z</time></trkpt>
<trkpt lat="46.81577906" lon="6.52975495"><ele>853.788086</ele><time>2007-07-07T14:01:18Z</time></trkpt>
<trkpt lat="46.81569910" lon="6.52991580"><ele>851.865479</ele><time>2007-07-07T14:01:23Z</time></trkpt>
<trkpt lat="46.81568175" lon="6.52993038"><ele>851.384766</ele><time>2007-07-07T14:01:24Z</time></trkpt>
<trkpt lat="46.81566926" lon="6.52995570"><ele>851.384766</ele><time>2007-07-07T14:01:25Z</time></trkpt>
<trkpt lat="46.81559365" lon="6.53017974"><ele>848.500732</ele><time>2007-07-07T14:01:44Z</time></trkpt>
<trkpt lat="46.81558133" lon="6.53026549"><ele>845.616943</ele><time>2007-07-07T14:01:48Z</time></trkpt>
<trkpt lat="46.81558485" lon="6.53028896"><ele>845.616943</ele><time>2007-07-07T14:01:49Z</time></trkpt>
<trkpt lat="46.81553104" lon="6.53037806"><ele>844.175049</ele><time>2007-07-07T14:01:56Z</time></trkpt>
<trkpt lat="46.81546382" lon="6.53057017"><ele>841.771484</ele><time>2007-07-07T14:02:09Z</time></trkpt>
<trkpt lat="46.81546457" lon="6.53060848"><ele>841.290771</ele><time>2007-07-07T14:02:10Z</time></trkpt>
<trkpt lat="46.81549273" lon="6.53068827"><ele>840.32959</ele><time>2007-07-07T14:02:12Z</time></trkpt>
<trkpt lat="46.81552308" lon="6.53078542"><ele>839.848877</ele><time>2007-07-07T14:02:14Z</time></trkpt>
<trkpt lat="46.81554596" lon="6.53088994"><ele>837.92627</ele><time>2007-07-07T14:02:17Z</time></trkpt>
<trkpt lat="46.81555434" lon="6.53095314"><ele>836.964844</ele><time>2007-07-07T14:02:19Z</time></trkpt>
<trkpt lat="46.81559013" lon="6.53109463"><ele>834.081055</ele><time>2007-07-07T14:02:25Z</time></trkpt>
<trkpt lat="46.81559449" lon="6.53112539"><ele>832.63916</ele><time>2007-07-07T14:02:27Z</time></trkpt>
<trkpt lat="46.81559977" lon="6.53116395"><ele>832.63916</ele><time>2007-07-07T14:02:29Z</time></trkpt>
<trkpt lat="46.81554194" lon="6.53136210"><ele>829.274414</ele><time>2007-07-07T14:02:36Z</time></trkpt>
<trkpt lat="46.81554135" lon="6.53138699"><ele>829.274414</ele><time>2007-07-07T14:02:37Z</time></trkpt>
<trkpt lat="46.81554755" lon="6.53142848"><ele>827.832275</ele><time>2007-07-07T14:02:39Z</time></trkpt>
<trkpt lat="46.81551084" lon="6.53155002"><ele>824.467773</ele><time>2007-07-07T14:02:45Z</time></trkpt>
<trkpt lat="46.81554462" lon="6.53164188"><ele>824.467773</ele><time>2007-07-07T14:02:49Z</time></trkpt>
<trkpt lat="46.81538679" lon="6.53176996"><ele>823.506592</ele><time>2007-07-07T14:02:54Z</time></trkpt>
<trkpt lat="46.81534228" lon="6.53180265"><ele>822.545166</ele><time>2007-07-07T14:02:56Z</time></trkpt>
<trkpt lat="46.81520934" lon="6.53186853"><ele>822.064453</ele><time>2007-07-07T14:03:00Z</time></trkpt>
<trkpt lat="46.81514245" lon="6.53187574"><ele>821.58374</ele><time>2007-07-07T14:03:04Z</time></trkpt>
<trkpt lat="46.81513919" lon="6.53191807"><ele>821.58374</ele><time>2007-07-07T14:03:09Z</time></trkpt>
<trkpt lat="46.81508378" lon="6.53204497"><ele>821.58374</ele><time>2007-07-07T14:03:14Z</time></trkpt>
<trkpt lat="46.81506492" lon="6.53212326"><ele>820.622559</ele><time>2007-07-07T14:03:16Z</time></trkpt>
<trkpt lat="46.81503709" lon="6.53221604"><ele>819.661377</ele><time>2007-07-07T14:03:18Z</time></trkpt>
<trkpt lat="46.81497532" lon="6.53232819"><ele>818.699951</ele><time>2007-07-07T14:03:21Z</time></trkpt>
<trkpt lat="46.81476024" lon="6.53227178"><ele>816.296631</ele><time>2007-07-07T14:03:26Z</time></trkpt>
<trkpt lat="46.81466645" lon="6.53227128"><ele>815.335449</ele><time>2007-07-07T14:03:28Z</time></trkpt>
<trkpt lat="46.81451767" lon="6.53237136"><ele>815.816162</ele><time>2007-07-07T14:03:33Z</time></trkpt>
<trkpt lat="46.81440468" lon="6.53247102"><ele>815.335449</ele><time>2007-07-07T14:03:39Z</time></trkpt>
<trkpt lat="46.81448313" lon="6.53269406"><ele>813.893311</ele><time>2007-07-07T14:03:45Z</time></trkpt>
<trkpt lat="46.81443234" lon="6.53277587"><ele>813.893311</ele><time>2007-07-07T14:03:49Z</time></trkpt>
<trkpt lat="46.81438532" lon="6.53280479"><ele>813.412842</ele><time>2007-07-07T14:03:51Z</time></trkpt>
<trkpt lat="46.81434592" lon="6.53298249"><ele>812.932129</ele><time>2007-07-07T14:03:56Z</time></trkpt>
<trkpt lat="46.81434802" lon="6.53312615"><ele>811.48999</ele><time>2007-07-07T14:03:59Z</time></trkpt>
<trkpt lat="46.81433528" lon="6.53316203"><ele>811.48999</ele><time>2007-07-07T14:04:00Z</time></trkpt>
<trkpt lat="46.81432933" lon="6.53329764"><ele>808.605957</ele><time>2007-07-07T14:04:06Z</time></trkpt>
<trkpt lat="46.81430343" lon="6.53336646"><ele>807.644775</ele><time>2007-07-07T14:04:10Z</time></trkpt>
<trkpt lat="46.81432312" lon="6.53340334"><ele>806.68335</ele><time>2007-07-07T14:04:18Z</time></trkpt>
<trkpt lat="46.81431239" lon="6.53343083"><ele>804.760742</ele><time>2007-07-07T14:04:20Z</time></trkpt>
<trkpt lat="46.81428205" lon="6.53355028"><ele>802.357422</ele><time>2007-07-07T14:04:25Z</time></trkpt>
<trkpt lat="46.81427057" lon="6.53357307"><ele>802.357422</ele><time>2007-07-07T14:04:26Z</time></trkpt>
<trkpt lat="46.81424693" lon="6.53372504"><ele>801.39624</ele><time>2007-07-07T14:04:32Z</time></trkpt>
<trkpt lat="46.81424936" lon="6.53375144"><ele>801.39624</ele><time>2007-07-07T14:04:33Z</time></trkpt>
<trkpt lat="46.81417887" lon="6.53396409"><ele>798.99292</ele><time>2007-07-07T14:04:39Z</time></trkpt>
<trkpt lat="46.81413176" lon="6.53415788"><ele>796.589844</ele><time>2007-07-07T14:04:45Z</time></trkpt>
<trkpt lat="46.81411467" lon="6.53424782"><ele>796.589844</ele><time>2007-07-07T14:04:49Z</time></trkpt>
<trkpt lat="46.81410276" lon="6.53437229"><ele>793.224854</ele><time>2007-07-07T14:04:55Z</time></trkpt>
<trkpt lat="46.81410452" lon="6.53439157"><ele>793.224854</ele><time>2007-07-07T14:04:56Z</time></trkpt>
<trkpt lat="46.81411634" lon="6.53442048"><ele>792.263672</ele><time>2007-07-07T14:04:59Z</time></trkpt>
<trkpt lat="46.81407183" lon="6.53450623"><ele>788.418457</ele><time>2007-07-07T14:05:09Z</time></trkpt>
<trkpt lat="46.81404216" lon="6.53459692"><ele>786.976318</ele><time>2007-07-07T14:05:19Z</time></trkpt>
<trkpt lat="46.81401752" lon="6.53466046"><ele>784.573242</ele><time>2007-07-07T14:05:24Z</time></trkpt>
<trkpt lat="46.81394694" lon="6.53479038"><ele>782.650635</ele><time>2007-07-07T14:05:30Z</time></trkpt>
<trkpt lat="46.81389732" lon="6.53489532"><ele>780.728027</ele><time>2007-07-07T14:05:35Z</time></trkpt>
<trkpt lat="46.81387813" lon="6.53499029"><ele>778.324463</ele><time>2007-07-07T14:05:39Z</time></trkpt>
<trkpt lat="46.81382373" lon="6.53513907"><ele>775.921143</ele><time>2007-07-07T14:05:44Z</time></trkpt>
<trkpt lat="46.81379615" lon="6.53518508"><ele>775.44043</ele><time>2007-07-07T14:05:46Z</time></trkpt>
<trkpt lat="46.81374326" lon="6.53528726"><ele>774.479248</ele><time>2007-07-07T14:06:01Z</time></trkpt>
<trkpt lat="46.81370102" lon="6.53535088"><ele>774.959961</ele><time>2007-07-07T14:06:08Z</time></trkpt>
<trkpt lat="46.81369473" lon="6.53536655"><ele>774.959961</ele><time>2007-07-07T14:06:09Z</time></trkpt>
<trkpt lat="46.81363556" lon="6.53553586"><ele>772.556641</ele><time>2007-07-07T14:06:15Z</time></trkpt>
<trkpt lat="46.81361753" lon="6.53564039"><ele>771.114746</ele><time>2007-07-07T14:06:18Z</time></trkpt>
<trkpt lat="46.81361008" lon="6.53566679"><ele>770.634033</ele><time>2007-07-07T14:06:19Z</time></trkpt>
<trkpt lat="46.81363556" lon="6.53571893"><ele>769.192139</ele><time>2007-07-07T14:06:21Z</time></trkpt>
<trkpt lat="46.81361569" lon="6.53581599"><ele>767.75</ele><time>2007-07-07T14:06:24Z</time></trkpt>
<trkpt lat="46.81359574" lon="6.53601908"><ele>765.346924</ele><time>2007-07-07T14:06:29Z</time></trkpt>
<trkpt lat="46.81346104" lon="6.53651143"><ele>762.462646</ele><time>2007-07-07T14:06:37Z</time></trkpt>
<trkpt lat="46.81340329" lon="6.53676683"><ele>760.059326</ele><time>2007-07-07T14:06:41Z</time></trkpt>
<trkpt lat="46.81339935" lon="6.53682106"><ele>759.578857</ele><time>2007-07-07T14:06:42Z</time></trkpt>
<trkpt lat="46.81336423" lon="6.53704260"><ele>757.65625</ele><time>2007-07-07T14:06:47Z</time></trkpt>
<trkpt lat="46.81325996" lon="6.53717243"><ele>756.214111</ele><time>2007-07-07T14:06:51Z</time></trkpt>
<trkpt lat="46.81317254" lon="6.53726296"><ele>754.291748</ele><time>2007-07-07T14:06:54Z</time></trkpt>
<trkpt lat="46.81314647" lon="6.53729917"><ele>754.291748</ele><time>2007-07-07T14:06:55Z</time></trkpt>
<trkpt lat="46.81305058" lon="6.53737955"><ele>752.368896</ele><time>2007-07-07T14:06:58Z</time></trkpt>
<trkpt lat="46.81292393" lon="6.53742934"><ele>749.485107</ele><time>2007-07-07T14:07:03Z</time></trkpt>
<trkpt lat="46.81290474" lon="6.53744057"><ele>749.485107</ele><time>2007-07-07T14:07:04Z</time></trkpt>
<trkpt lat="46.81277993" lon="6.53756370"><ele>747.562256</ele><time>2007-07-07T14:07:09Z</time></trkpt>
<trkpt lat="46.81270424" lon="6.53769236"><ele>747.562256</ele><time>2007-07-07T14:07:13Z</time></trkpt>
<trkpt lat="46.81262076" lon="6.53781935"><ele>745.639648</ele><time>2007-07-07T14:07:19Z</time></trkpt>
<trkpt lat="46.81258782" lon="6.53788246"><ele>743.717041</ele><time>2007-07-07T14:07:22Z</time></trkpt>
<trkpt lat="46.81253132" lon="6.53796838"><ele>744.197754</ele><time>2007-07-07T14:07:28Z</time></trkpt>
<trkpt lat="46.81248606" lon="6.53795086"><ele>742.275146</ele><time>2007-07-07T14:07:32Z</time></trkpt>
<trkpt lat="46.81242647" lon="6.53801205"><ele>740.833008</ele><time>2007-07-07T14:07:35Z</time></trkpt>
<trkpt lat="46.81234617" lon="6.53809570"><ele>738.429932</ele><time>2007-07-07T14:07:38Z</time></trkpt>
<trkpt lat="46.81230619" lon="6.53814423"><ele>738.429932</ele><time>2007-07-07T14:07:39Z</time></trkpt>
<trkpt lat="46.81224223" lon="6.53825286"><ele>737.468506</ele><time>2007-07-07T14:07:41Z</time></trkpt>
<trkpt lat="46.81219504" lon="6.53834992"><ele>736.026611</ele><time>2007-07-07T14:07:43Z</time></trkpt>
<trkpt lat="46.81215514" lon="6.53843299"><ele>735.545898</ele><time>2007-07-07T14:07:45Z</time></trkpt>
<trkpt lat="46.81205817" lon="6.53860523"><ele>733.623291</ele><time>2007-07-07T14:07:50Z</time></trkpt>
<trkpt lat="46.81200494" lon="6.53873876"><ele>731.219971</ele><time>2007-07-07T14:07:55Z</time></trkpt>
<trkpt lat="46.81195859" lon="6.53886373"><ele>729.297119</ele><time>2007-07-07T14:08:01Z</time></trkpt>
<trkpt lat="46.81190352" lon="6.53898133"><ele>726.894043</ele><time>2007-07-07T14:08:06Z</time></trkpt>
<trkpt lat="46.81186823" lon="6.53903967"><ele>724.971436</ele><time>2007-07-07T14:08:10Z</time></trkpt>
<trkpt lat="46.81180017" lon="6.53936950"><ele>720.164795</ele><time>2007-07-07T14:08:41Z</time></trkpt>
<trkpt lat="46.81178106" lon="6.53947854"><ele>718.7229</ele><time>2007-07-07T14:08:52Z</time></trkpt>
<trkpt lat="46.81176639" lon="6.53950528"><ele>718.7229</ele><time>2007-07-07T14:08:53Z</time></trkpt>
<trkpt lat="46.81172767" lon="6.53959019"><ele>718.242188</ele><time>2007-07-07T14:08:55Z</time></trkpt>
<trkpt lat="46.81163622" lon="6.53986285"><ele>715.838867</ele><time>2007-07-07T14:08:59Z</time></trkpt>
<trkpt lat="46.81159238" lon="6.54005120"><ele>713.435547</ele><time>2007-07-07T14:09:03Z</time></trkpt>
<trkpt lat="46.81148778" lon="6.54025689"><ele>710.551514</ele><time>2007-07-07T14:09:08Z</time></trkpt>
<trkpt lat="46.81145643" lon="6.54029838"><ele>709.590332</ele><time>2007-07-07T14:09:09Z</time></trkpt>
<trkpt lat="46.81135735" lon="6.54050063"><ele>706.225586</ele><time>2007-07-07T14:09:13Z</time></trkpt>
<trkpt lat="46.81125233" lon="6.54076366"><ele>704.783691</ele><time>2007-07-07T14:09:17Z</time></trkpt>
<trkpt lat="46.81111956" lon="6.54106633"><ele>701.899902</ele><time>2007-07-07T14:09:21Z</time></trkpt>
<trkpt lat="46.81101655" lon="6.54132818"><ele>699.496338</ele><time>2007-07-07T14:09:24Z</time></trkpt>
<trkpt lat="46.81095435" lon="6.54148199"><ele>699.496338</ele><time>2007-07-07T14:09:26Z</time></trkpt>
<trkpt lat="46.81080222" lon="6.54166957"><ele>698.054443</ele><time>2007-07-07T14:09:30Z</time></trkpt>
<trkpt lat="46.81056552" lon="6.54195992"><ele>696.131836</ele><time>2007-07-07T14:09:36Z</time></trkpt>
<trkpt lat="46.81053769" lon="6.54211742"><ele>695.651123</ele><time>2007-07-07T14:09:39Z</time></trkpt>
<trkpt lat="46.81052780" lon="6.54216989"><ele>695.651123</ele><time>2007-07-07T14:09:40Z</time></trkpt>
<trkpt lat="46.81044054" lon="6.54240743"><ele>694.689697</ele><time>2007-07-07T14:09:45Z</time></trkpt>
<trkpt lat="46.81030056" lon="6.54251900"><ele>694.209229</ele><time>2007-07-07T14:09:49Z</time></trkpt>
<trkpt lat="46.81011080" lon="6.54269929"><ele>692.767334</ele><time>2007-07-07T14:09:54Z</time></trkpt>
<trkpt lat="46.80990477" lon="6.54288244"><ele>692.286621</ele><time>2007-07-07T14:09:59Z</time></trkpt>
<trkpt lat="46.80982095" lon="6.54296215"><ele>692.767334</ele><time>2007-07-07T14:10:01Z</time></trkpt>
<trkpt lat="46.80970402" lon="6.54327462"><ele>691.805908</ele><time>2007-07-07T14:10:06Z</time></trkpt>
<trkpt lat="46.80959967" lon="6.54345048"><ele>691.325195</ele><time>2007-07-07T14:10:09Z</time></trkpt>
<trkpt lat="46.80938384" lon="6.54360110"><ele>690.364014</ele><time>2007-07-07T14:10:15Z</time></trkpt>
<trkpt lat="46.80936774" lon="6.54363220"><ele>689.883301</ele><time>2007-07-07T14:10:16Z</time></trkpt>
<trkpt lat="46.80939155" lon="6.54369389"><ele>689.883301</ele><time>2007-07-07T14:10:18Z</time></trkpt>
<trkpt lat="46.80953052" lon="6.54369850"><ele>689.402588</ele><time>2007-07-07T14:10:22Z</time></trkpt>
<trkpt lat="46.80953949" lon="6.54381752"><ele>688.922119</ele><time>2007-07-07T14:10:26Z</time></trkpt>
<trkpt lat="46.80939498" lon="6.54395792"><ele>688.441406</ele><time>2007-07-07T14:10:31Z</time></trkpt>
<trkpt lat="46.80919482" lon="6.54418976"><ele>687.47998</ele><time>2007-07-07T14:10:37Z</time></trkpt>
<trkpt lat="46.80917454" lon="6.54421139"><ele>686.999268</ele><time>2007-07-07T14:10:38Z</time></trkpt>
<trkpt lat="46.80912685" lon="6.54425975"><ele>686.518799</ele><time>2007-07-07T14:10:42Z</time></trkpt>
<trkpt lat="46.80904588" lon="6.54427819"><ele>686.999268</ele><time>2007-07-07T14:10:46Z</time></trkpt>
<trkpt lat="46.80886013" lon="6.54426444"><ele>686.518799</ele><time>2007-07-07T14:10:53Z</time></trkpt>
<trkpt lat="46.80871504" lon="6.54429403"><ele>686.518799</ele><time>2007-07-07T14:10:58Z</time></trkpt>
<trkpt lat="46.80847465" lon="6.54432127"><ele>685.557373</ele><time>2007-07-07T14:11:04Z</time></trkpt>
<trkpt lat="46.80839016" lon="6.54434759"><ele>685.076904</ele><time>2007-07-07T14:11:06Z</time></trkpt>
<trkpt lat="46.80824390" lon="6.54447885"><ele>685.076904</ele><time>2007-07-07T14:11:10Z</time></trkpt>
<trkpt lat="46.80805287" lon="6.54477976"><ele>683.634521</ele><time>2007-07-07T14:11:15Z</time></trkpt>
<trkpt lat="46.80789244" lon="6.54509408"><ele>681.231445</ele><time>2007-07-07T14:11:21Z</time></trkpt>
<trkpt lat="46.80772908" lon="6.54523473"><ele>679.789307</ele><time>2007-07-07T14:11:25Z</time></trkpt>
<trkpt lat="46.80734586" lon="6.54533817"><ele>677.866699</ele><time>2007-07-07T14:11:32Z</time></trkpt>
<trkpt lat="46.80716213" lon="6.54531495"><ele>675.463379</ele><time>2007-07-07T14:11:36Z</time></trkpt>
<trkpt lat="46.80711276" lon="6.54527497"><ele>674.98291</ele><time>2007-07-07T14:11:37Z</time></trkpt>
<trkpt lat="46.80696239" lon="6.54512560"><ele>673.541016</ele><time>2007-07-07T14:11:40Z</time></trkpt>
<trkpt lat="46.80680045" lon="6.54496743"><ele>669.695801</ele><time>2007-07-07T14:11:43Z</time></trkpt>
<trkpt lat="46.80674446" lon="6.54490977"><ele>669.695801</ele><time>2007-07-07T14:11:44Z</time></trkpt>
<trkpt lat="46.80657498" lon="6.54473148"><ele>666.330811</ele><time>2007-07-07T14:11:47Z</time></trkpt>
<trkpt lat="46.80651496" lon="6.54467214"><ele>666.330811</ele><time>2007-07-07T14:11:48Z</time></trkpt>
<trkpt lat="46.80639225" lon="6.54456762"><ele>662.485596</ele><time>2007-07-07T14:11:50Z</time></trkpt>
<trkpt lat="46.80632394" lon="6.54450517"><ele>662.485596</ele><time>2007-07-07T14:11:51Z</time></trkpt>
<trkpt lat="46.80612579" lon="6.54436260"><ele>659.601807</ele><time>2007-07-07T14:11:54Z</time></trkpt>
<trkpt lat="46.80586486" lon="6.54415338"><ele>656.717773</ele><time>2007-07-07T14:11:58Z</time></trkpt>
<trkpt lat="46.80564534" lon="6.54392766"><ele>652.872559</ele><time>2007-07-07T14:12:01Z</time></trkpt>
<trkpt lat="46.80550226" lon="6.54384459"><ele>652.391846</ele><time>2007-07-07T14:12:03Z</time></trkpt>
<trkpt lat="46.80537854" lon="6.54373353"><ele>649.988525</ele><time>2007-07-07T14:12:05Z</time></trkpt>
<trkpt lat="46.80515994" lon="6.54337772"><ele>644.701172</ele><time>2007-07-07T14:12:10Z</time></trkpt>
<trkpt lat="46.80504855" lon="6.54314915"><ele>642.778809</ele><time>2007-07-07T14:12:13Z</time></trkpt>
<trkpt lat="46.80486909" lon="6.54295343"><ele>638.452881</ele><time>2007-07-07T14:12:17Z</time></trkpt>
<trkpt lat="46.80481964" lon="6.54291588"><ele>638.452881</ele><time>2007-07-07T14:12:18Z</time></trkpt>
<trkpt lat="46.80470665" lon="6.54290440"><ele>637.010742</ele><time>2007-07-07T14:12:20Z</time></trkpt>
<trkpt lat="46.80443424" lon="6.54275537"><ele>632.684814</ele><time>2007-07-07T14:12:25Z</time></trkpt>
<trkpt lat="46.80428647" lon="6.54266995"><ele>631.24292</ele><time>2007-07-07T14:12:29Z</time></trkpt>
<trkpt lat="46.80420600" lon="6.54278076"><ele>632.204102</ele><time>2007-07-07T14:13:02Z</time></trkpt>
<trkpt lat="46.80418689" lon="6.54277339"><ele>632.684814</ele><time>2007-07-07T14:13:03Z</time></trkpt>
<trkpt lat="46.80408513" lon="6.54269728"><ele>632.684814</ele><time>2007-07-07T14:13:09Z</time></trkpt>
<trkpt lat="46.80396602" lon="6.54258739"><ele>632.684814</ele><time>2007-07-07T14:13:13Z</time></trkpt>
<trkpt lat="46.80383443" lon="6.54250810"><ele>633.165283</ele><time>2007-07-07T14:13:18Z</time></trkpt>
<trkpt lat="46.80367023" lon="6.54244029"><ele>633.645996</ele><time>2007-07-07T14:13:24Z</time></trkpt>
<trkpt lat="46.80351097" lon="6.54236418"><ele>634.126709</ele><time>2007-07-07T14:13:28Z</time></trkpt>
<trkpt lat="46.80343947" lon="6.54234658"><ele>634.607422</ele><time>2007-07-07T14:13:30Z</time></trkpt>
<trkpt lat="46.80311157" lon="6.54218196"><ele>635.088135</ele><time>2007-07-07T14:13:36Z</time></trkpt>
<trkpt lat="46.80288962" lon="6.54206939"><ele>636.049561</ele><time>2007-07-07T14:13:39Z</time></trkpt>
<trkpt lat="46.80249006" lon="6.54189387"><ele>635.568604</ele><time>2007-07-07T14:13:46Z</time></trkpt>
<trkpt lat="46.80223684" lon="6.54177317"><ele>634.607422</ele><time>2007-07-07T14:13:51Z</time></trkpt>
<trkpt lat="46.80215553" lon="6.54169883"><ele>635.088135</ele><time>2007-07-07T14:13:53Z</time></trkpt>
<trkpt lat="46.80189117" lon="6.54132332"><ele>635.088135</ele><time>2007-07-07T14:13:58Z</time></trkpt>
<trkpt lat="46.80151155" lon="6.54077003"><ele>636.049561</ele><time>2007-07-07T14:14:05Z</time></trkpt>
<trkpt lat="46.80133578" lon="6.54054824"><ele>636.530273</ele><time>2007-07-07T14:14:09Z</time></trkpt>
<trkpt lat="46.80119664" lon="6.54027667"><ele>636.049561</ele><time>2007-07-07T14:14:13Z</time></trkpt>
<trkpt lat="46.80107972" lon="6.53997559"><ele>636.049561</ele><time>2007-07-07T14:14:17Z</time></trkpt>
<trkpt lat="46.80098022" lon="6.53977669"><ele>636.049561</ele><time>2007-07-07T14:14:20Z</time></trkpt>
<trkpt lat="46.80072382" lon="6.53942063"><ele>636.049561</ele><time>2007-07-07T14:14:26Z</time></trkpt>
<trkpt lat="46.80043423" lon="6.53911837"><ele>637.010742</ele><time>2007-07-07T14:14:33Z</time></trkpt>
<trkpt lat="46.80013583" lon="6.53891536"><ele>637.972168</ele><time>2007-07-07T14:14:41Z</time></trkpt>
<trkpt lat="46.80006123" lon="6.53884135"><ele>637.491455</ele><time>2007-07-07T14:14:43Z</time></trkpt>
<trkpt lat="46.79991103" lon="6.53866315"><ele>638.452881</ele><time>2007-07-07T14:14:48Z</time></trkpt>
<trkpt lat="46.79986803" lon="6.53838865"><ele>638.933594</ele><time>2007-07-07T14:14:53Z</time></trkpt>
<trkpt lat="46.79982964" lon="6.53826526"><ele>639.414063</ele><time>2007-07-07T14:14:56Z</time></trkpt>
<trkpt lat="46.79975102" lon="6.53806653"><ele>639.414063</ele><time>2007-07-07T14:15:02Z</time></trkpt>
<trkpt lat="46.79965102" lon="6.53789646"><ele>640.375488</ele><time>2007-07-07T14:15:08Z</time></trkpt>
<trkpt lat="46.79953879" lon="6.53778087"><ele>641.33667</ele><time>2007-07-07T14:15:13Z</time></trkpt>
<trkpt lat="46.79947634" lon="6.53774399"><ele>641.817383</ele><time>2007-07-07T14:15:16Z</time></trkpt>
<trkpt lat="46.79938347" lon="6.53768876"><ele>641.817383</ele><time>2007-07-07T14:15:20Z</time></trkpt>
<trkpt lat="46.79925405" lon="6.53754023"><ele>643.73999</ele><time>2007-07-07T14:15:27Z</time></trkpt>
<trkpt lat="46.79912539" lon="6.53731517"><ele>645.181885</ele><time>2007-07-07T14:15:33Z</time></trkpt>
<trkpt lat="46.79900092" lon="6.53705835"><ele>646.143311</ele><time>2007-07-07T14:15:39Z</time></trkpt>
<trkpt lat="46.79886983" lon="6.53676222"><ele>647.104492</ele><time>2007-07-07T14:15:47Z</time></trkpt>
<trkpt lat="46.79870605" lon="6.53657195"><ele>647.585205</ele><time>2007-07-07T14:15:55Z</time></trkpt>
<trkpt lat="46.79852366" lon="6.53641915"><ele>649.0271</ele><time>2007-07-07T14:16:03Z</time></trkpt>
<trkpt lat="46.79843238" lon="6.53634799"><ele>649.507813</ele><time>2007-07-07T14:16:08Z</time></trkpt>
<trkpt lat="46.79827748" lon="6.53627942"><ele>651.43042</ele><time>2007-07-07T14:16:14Z</time></trkpt>
<trkpt lat="46.79812065" lon="6.53619594"><ele>652.872559</ele><time>2007-07-07T14:16:20Z</time></trkpt>
<trkpt lat="46.79793273" lon="6.53604750"><ele>653.833984</ele><time>2007-07-07T14:16:28Z</time></trkpt>
<trkpt lat="46.79778596" lon="6.53580626"><ele>654.795166</ele><time>2007-07-07T14:16:36Z</time></trkpt>
<trkpt lat="46.79768999" lon="6.53566645"><ele>655.275879</ele><time>2007-07-07T14:16:41Z</time></trkpt>
<trkpt lat="46.79763685" lon="6.53561004"><ele>655.756592</ele><time>2007-07-07T14:16:44Z</time></trkpt>
<trkpt lat="46.79757147" lon="6.53538868"><ele>657.679199</ele><time>2007-07-07T14:16:50Z</time></trkpt>
<trkpt lat="46.79756074" lon="6.53536135"><ele>657.198486</ele><time>2007-07-07T14:16:51Z</time></trkpt>
<trkpt lat="46.79744516" lon="6.53517469"><ele>658.640381</ele><time>2007-07-07T14:16:57Z</time></trkpt>
<trkpt lat="46.79736704" lon="6.53508249"><ele>658.640381</ele><time>2007-07-07T14:17:00Z</time></trkpt>
<trkpt lat="46.79725623" lon="6.53485727"><ele>659.121094</ele><time>2007-07-07T14:17:07Z</time></trkpt>
<trkpt lat="46.79723259" lon="6.53481485"><ele>659.121094</ele><time>2007-07-07T14:17:09Z</time></trkpt>
<trkpt lat="46.79705448" lon="6.53461444"><ele>660.082275</ele><time>2007-07-07T14:17:17Z</time></trkpt>
<trkpt lat="46.79698616" lon="6.53446550"><ele>660.562988</ele><time>2007-07-07T14:17:22Z</time></trkpt>
<trkpt lat="46.79693503" lon="6.53437120"><ele>660.562988</ele><time>2007-07-07T14:17:25Z</time></trkpt>
<trkpt lat="46.79675876" lon="6.53415486"><ele>662.005127</ele><time>2007-07-07T14:17:32Z</time></trkpt>
<trkpt lat="46.79659666" lon="6.53393735"><ele>662.485596</ele><time>2007-07-07T14:17:39Z</time></trkpt>
<trkpt lat="46.79657470" lon="6.53391715"><ele>662.485596</ele><time>2007-07-07T14:17:40Z</time></trkpt>
<trkpt lat="46.79652952" lon="6.53379385"><ele>662.485596</ele><time>2007-07-07T14:17:43Z</time></trkpt>
<trkpt lat="46.79640178" lon="6.53359009"><ele>662.966309</ele><time>2007-07-07T14:17:49Z</time></trkpt>
<trkpt lat="46.79632877" lon="6.53348004"><ele>663.447021</ele><time>2007-07-07T14:17:53Z</time></trkpt>
<trkpt lat="46.79620765" lon="6.53329505"><ele>664.408203</ele><time>2007-07-07T14:17:59Z</time></trkpt>
<trkpt lat="46.79602719" lon="6.53309857"><ele>664.408203</ele><time>2007-07-07T14:18:05Z</time></trkpt>
<trkpt lat="46.79581949" lon="6.53290562"><ele>664.408203</ele><time>2007-07-07T14:18:11Z</time></trkpt>
<trkpt lat="46.79559116" lon="6.53266607"><ele>664.888916</ele><time>2007-07-07T14:18:19Z</time></trkpt>
<trkpt lat="46.79543719" lon="6.53252198"><ele>666.330811</ele><time>2007-07-07T14:18:25Z</time></trkpt>
<trkpt lat="46.79526016" lon="6.53233306"><ele>666.811523</ele><time>2007-07-07T14:18:32Z</time></trkpt>
<trkpt lat="46.79504248" lon="6.53204539"><ele>668.253662</ele><time>2007-07-07T14:18:42Z</time></trkpt>
<trkpt lat="46.79481190" lon="6.53176367"><ele>669.695801</ele><time>2007-07-07T14:18:52Z</time></trkpt>
<trkpt lat="46.79461165" lon="6.53161447"><ele>669.695801</ele><time>2007-07-07T14:18:59Z</time></trkpt>
<trkpt lat="46.79440236" lon="6.53158824"><ele>669.215088</ele><time>2007-07-07T14:19:04Z</time></trkpt>
<trkpt lat="46.79414973" lon="6.53152672"><ele>667.772705</ele><time>2007-07-07T14:19:09Z</time></trkpt>
<trkpt lat="46.79390808" lon="6.53143703"><ele>666.330811</ele><time>2007-07-07T14:19:13Z</time></trkpt>
<trkpt lat="46.79361463" lon="6.53117099"><ele>665.369629</ele><time>2007-07-07T14:19:18Z</time></trkpt>
<trkpt lat="46.79327767" lon="6.53040505"><ele>662.966309</ele><time>2007-07-07T14:19:26Z</time></trkpt>
<trkpt lat="46.79315270" lon="6.52986567"><ele>661.524414</ele><time>2007-07-07T14:19:31Z</time></trkpt>
<trkpt lat="46.79310199" lon="6.52964682"><ele>660.082275</ele><time>2007-07-07T14:19:33Z</time></trkpt>
<trkpt lat="46.79282916" lon="6.52905364"><ele>659.601807</ele><time>2007-07-07T14:19:39Z</time></trkpt>
<trkpt lat="46.79273318" lon="6.52890335"><ele>659.601807</ele><time>2007-07-07T14:19:41Z</time></trkpt>
<trkpt lat="46.79246346" lon="6.52856145"><ele>659.601807</ele><time>2007-07-07T14:19:46Z</time></trkpt>
<trkpt lat="46.79217076" lon="6.52817479"><ele>658.640381</ele><time>2007-07-07T14:19:52Z</time></trkpt>
<trkpt lat="46.79186566" lon="6.52783382"><ele>657.679199</ele><time>2007-07-07T14:19:59Z</time></trkpt>
<trkpt lat="46.79159526" lon="6.52767942"><ele>657.198486</ele><time>2007-07-07T14:20:04Z</time></trkpt>
<trkpt lat="46.79144028" lon="6.52771337"><ele>656.717773</ele><time>2007-07-07T14:20:07Z</time></trkpt>
<trkpt lat="46.79130340" lon="6.52780649"><ele>656.237061</ele><time>2007-07-07T14:20:10Z</time></trkpt>
<trkpt lat="46.79107298" lon="6.52795913"><ele>656.237061</ele><time>2007-07-07T14:20:15Z</time></trkpt>
<trkpt lat="46.79087902" lon="6.52802258"><ele>656.237061</ele><time>2007-07-07T14:20:20Z</time></trkpt>
<trkpt lat="46.79079663" lon="6.52790649"><ele>656.237061</ele><time>2007-07-07T14:20:24Z</time></trkpt>
<trkpt lat="46.79078297" lon="6.52785184"><ele>656.237061</ele><time>2007-07-07T14:20:25Z</time></trkpt>
<trkpt lat="46.79069772" lon="6.52754883"><ele>657.198486</ele><time>2007-07-07T14:20:30Z</time></trkpt>
<trkpt lat="46.79061357" lon="6.52709453"><ele>658.159912</ele><time>2007-07-07T14:20:37Z</time></trkpt>
<trkpt lat="46.79059454" lon="6.52703385"><ele>657.679199</ele><time>2007-07-07T14:20:38Z</time></trkpt>
<trkpt lat="46.79052774" lon="6.52666119"><ele>658.159912</ele><time>2007-07-07T14:20:44Z</time></trkpt>
<trkpt lat="46.79044342" lon="6.52623388"><ele>659.121094</ele><time>2007-07-07T14:20:51Z</time></trkpt>
<trkpt lat="46.79042238" lon="6.52611125"><ele>660.562988</ele><time>2007-07-07T14:20:53Z</time></trkpt>
<trkpt lat="46.79035205" lon="6.52580825"><ele>662.485596</ele><time>2007-07-07T14:20:58Z</time></trkpt>
<trkpt lat="46.79021074" lon="6.52537289"><ele>663.447021</ele><time>2007-07-07T14:21:06Z</time></trkpt>
<trkpt lat="46.79007679" lon="6.52513417"><ele>663.447021</ele><time>2007-07-07T14:21:12Z</time></trkpt>
<trkpt lat="46.78981544" lon="6.52511699"><ele>663.92749</ele><time>2007-07-07T14:21:18Z</time></trkpt>
<trkpt lat="46.78969097" lon="6.52508757"><ele>663.447021</ele><time>2007-07-07T14:21:21Z</time></trkpt>
<trkpt lat="46.78955653" lon="6.52525663"><ele>662.966309</ele><time>2007-07-07T14:21:26Z</time></trkpt>
<trkpt lat="46.78933575" lon="6.52568663"><ele>660.082275</ele><time>2007-07-07T14:21:33Z</time></trkpt>
<trkpt lat="46.78930482" lon="6.52575016"><ele>660.082275</ele><time>2007-07-07T14:21:34Z</time></trkpt>
<trkpt lat="46.78919443" lon="6.52598913"><ele>658.640381</ele><time>2007-07-07T14:21:39Z</time></trkpt>
<trkpt lat="46.78912754" lon="6.52608879"><ele>658.159912</ele><time>2007-07-07T14:21:43Z</time></trkpt>
<trkpt lat="46.78902956" lon="6.52611637"><ele>657.679199</ele><time>2007-07-07T14:21:48Z</time></trkpt>
</trkseg></trk></gpx>